SWR35G LSZH-KSFO
Flight info
| Callsign | SWR35G |
|---|---|
| Flight time | 11h 21m |
| Altitude | 32000 |
| Route | VEBIT T10 TORPA DCT EDOPI DCT GIVOR DCT SORAL DCT IBERA DCT VELED DCT TOPPA DCT BUDON DCT NALAN/M084F340 DCT 63N010W 67N020W 70N030W 73N040W 75N060W DCT GELBO/N0470F340 DCT 74N080W/N0483F360 70N096W 65N106W 60N114W 55N118W DCT YDC/N0467F370 DCT LTJ DCT DSD DCT MRRLO BDEGA4 |
| Aircraft | B77W/H-SDE1E2E3FGHIJ2J3J4J5M1RWXY/LB1D1 |
Departure
| Time | 2026-05-05 05:41 |
|---|---|
| Airport | Zürich Airport (LSZH) |
Arrival
| Time | 2026-05-05 17:02 |
|---|---|
| Airport | San Francisco International Airport (KSFO) |
| Time | Latitude | Longitude | Altitude | Speed | Heading |
|---|---|---|---|---|---|
| 2026-05-05 05:18 | 47.46158 | 8.55779 | 1417 ft | 0 kts | 186° |
| 2026-05-05 05:28 | 47.46180 | 8.55783 | 1416 ft | 4 kts | 186° |
| 2026-05-05 05:28 | 47.46201 | 8.55786 | 1405 ft | 4 kts | 186° |
| 2026-05-05 05:28 | 47.46224 | 8.55791 | 1414 ft | 4 kts | 214° |
| 2026-05-05 05:29 | 47.46233 | 8.55818 | 1416 ft | 3 kts | 276° |
| 2026-05-05 05:29 | 47.46230 | 8.55856 | 1410 ft | 4 kts | 276° |
| 2026-05-05 05:29 | 47.46229 | 8.55876 | 1413 ft | 0 kts | 276° |
| 2026-05-05 05:32 | 47.46229 | 8.55875 | 1413 ft | 1 kts | 276° |
| 2026-05-05 05:32 | 47.46232 | 8.55826 | 1416 ft | 9 kts | 276° |
| 2026-05-05 05:32 | 47.46242 | 8.55691 | 1405 ft | 15 kts | 276° |
| 2026-05-05 05:32 | 47.46253 | 8.55536 | 1411 ft | 15 kts | 276° |
| 2026-05-05 05:33 | 47.46264 | 8.55381 | 1404 ft | 15 kts | 276° |
| 2026-05-05 05:33 | 47.46275 | 8.55227 | 1398 ft | 15 kts | 276° |
| 2026-05-05 05:33 | 47.46286 | 8.55072 | 1399 ft | 15 kts | 276° |
| 2026-05-05 05:33 | 47.46297 | 8.54918 | 1403 ft | 15 kts | 276° |
| 2026-05-05 05:34 | 47.46303 | 8.54818 | 1392 ft | 8 kts | 276° |
| 2026-05-05 05:34 | 47.46322 | 8.54741 | 1385 ft | 8 kts | 311° |
| 2026-05-05 05:34 | 47.46371 | 8.54700 | 1386 ft | 8 kts | 333° |
| 2026-05-05 05:34 | 47.46423 | 8.54664 | 1389 ft | 8 kts | 335° |
| 2026-05-05 05:35 | 47.46475 | 8.54628 | 1403 ft | 8 kts | 335° |
| 2026-05-05 05:35 | 47.46527 | 8.54592 | 1398 ft | 9 kts | 335° |
| 2026-05-05 05:35 | 47.46591 | 8.54548 | 1402 ft | 12 kts | 335° |
| 2026-05-05 05:35 | 47.46687 | 8.54480 | 1385 ft | 16 kts | 335° |
| 2026-05-05 05:36 | 47.46788 | 8.54422 | 1386 ft | 16 kts | 340° |
| 2026-05-05 05:36 | 47.46889 | 8.54357 | 1383 ft | 16 kts | 335° |
| 2026-05-05 05:36 | 47.46986 | 8.54290 | 1386 ft | 16 kts | 335° |
| 2026-05-05 05:36 | 47.47084 | 8.54223 | 1385 ft | 16 kts | 335° |
| 2026-05-05 05:37 | 47.47183 | 8.54155 | 1400 ft | 16 kts | 335° |
| 2026-05-05 05:37 | 47.47281 | 8.54087 | 1400 ft | 16 kts | 335° |
| 2026-05-05 05:37 | 47.47379 | 8.54020 | 1403 ft | 16 kts | 335° |
| 2026-05-05 05:37 | 47.47478 | 8.53952 | 1407 ft | 16 kts | 335° |
| 2026-05-05 05:38 | 47.47557 | 8.53898 | 1403 ft | 8 kts | 335° |
| 2026-05-05 05:38 | 47.47599 | 8.53853 | 1406 ft | 7 kts | 308° |
| 2026-05-05 05:38 | 47.47610 | 8.53780 | 1409 ft | 7 kts | 267° |
| 2026-05-05 05:38 | 47.47597 | 8.53706 | 1410 ft | 7 kts | 246° |
| 2026-05-05 05:39 | 47.47573 | 8.53637 | 1406 ft | 7 kts | 242° |
| 2026-05-05 05:39 | 47.47540 | 8.53616 | 1410 ft | 5 kts | 173° |
| 2026-05-05 05:39 | 47.47525 | 8.53625 | 1412 ft | 0 kts | 154° |
| 2026-05-05 05:39 | 47.47515 | 8.53633 | 1410 ft | 12 kts | 154° |
| 2026-05-05 05:40 | 47.47202 | 8.53849 | 1401 ft | 88 kts | 155° |
| 2026-05-05 05:40 | 47.46436 | 8.54377 | 1386 ft | 153 kts | 155° |
| 2026-05-05 05:40 | 47.45301 | 8.55155 | 1441 ft | 198 kts | 155° |
| 2026-05-05 05:40 | 47.44050 | 8.56011 | 1962 ft | 201 kts | 155° |
| 2026-05-05 05:41 | 47.42846 | 8.57075 | 2449 ft | 206 kts | 130° |
| 2026-05-05 05:41 | 47.42325 | 8.58992 | 2895 ft | 208 kts | 87° |
| 2026-05-05 05:41 | 47.42837 | 8.60969 | 3258 ft | 215 kts | 45° |
| 2026-05-05 05:41 | 47.44129 | 8.62001 | 3579 ft | 221 kts | 9° |
| 2026-05-05 05:42 | 47.45666 | 8.62026 | 4010 ft | 221 kts | 354° |
| 2026-05-05 05:42 | 47.47127 | 8.61299 | 4376 ft | 229 kts | 322° |
| 2026-05-05 05:42 | 47.47972 | 8.59346 | 4784 ft | 231 kts | 279° |
| 2026-05-05 05:42 | 47.47822 | 8.57006 | 5164 ft | 230 kts | 254° |
| 2026-05-05 05:43 | 47.47378 | 8.54734 | 5704 ft | 228 kts | 251° |
| 2026-05-05 05:43 | 47.46612 | 8.52690 | 5978 ft | 235 kts | 223° |
| 2026-05-05 05:43 | 47.45475 | 8.50886 | 6163 ft | 249 kts | 233° |
| 2026-05-05 05:43 | 47.44514 | 8.48655 | 6469 ft | 263 kts | 238° |
| 2026-05-05 05:44 | 47.43549 | 8.46306 | 6916 ft | 271 kts | 238° |
| 2026-05-05 05:44 | 47.42571 | 8.43878 | 7381 ft | 280 kts | 238° |
| 2026-05-05 05:44 | 47.41585 | 8.41389 | 8046 ft | 281 kts | 239° |
| 2026-05-05 05:44 | 47.40625 | 8.38878 | 8771 ft | 281 kts | 239° |
| 2026-05-05 05:45 | 47.39658 | 8.36368 | 9450 ft | 281 kts | 239° |
| 2026-05-05 05:45 | 47.38688 | 8.33852 | 10074 ft | 283 kts | 240° |
| 2026-05-05 05:45 | 47.37740 | 8.31222 | 10371 ft | 300 kts | 241° |
| 2026-05-05 05:45 | 47.36758 | 8.28437 | 10537 ft | 320 kts | 241° |
| 2026-05-05 05:46 | 47.35694 | 8.25433 | 10707 ft | 341 kts | 241° |
| 2026-05-05 05:46 | 47.34566 | 8.22244 | 10935 ft | 360 kts | 241° |
| 2026-05-05 05:46 | 47.33387 | 8.18921 | 11462 ft | 369 kts | 240° |
| 2026-05-05 05:46 | 47.32182 | 8.15536 | 12161 ft | 374 kts | 240° |
| 2026-05-05 05:47 | 47.30971 | 8.12124 | 13021 ft | 376 kts | 240° |
| 2026-05-05 05:47 | 47.29763 | 8.08698 | 13882 ft | 377 kts | 239° |
| 2026-05-05 05:47 | 47.28551 | 8.05270 | 14656 ft | 378 kts | 239° |
| 2026-05-05 05:47 | 47.27443 | 8.01761 | 15201 ft | 383 kts | 250° |
| 2026-05-05 05:48 | 47.27091 | 7.97827 | 15716 ft | 398 kts | 270° |
| 2026-05-05 05:48 | 47.27458 | 7.93769 | 16318 ft | 402 kts | 275° |
| 2026-05-05 05:48 | 47.27883 | 7.89670 | 16966 ft | 406 kts | 275° |
| 2026-05-05 05:48 | 47.28292 | 7.85540 | 17688 ft | 409 kts | 275° |
| 2026-05-05 05:49 | 47.28693 | 7.81379 | 18376 ft | 412 kts | 274° |
| 2026-05-05 05:49 | 47.29088 | 7.77176 | 18971 ft | 415 kts | 274° |
| 2026-05-05 05:49 | 47.29479 | 7.72956 | 19564 ft | 417 kts | 274° |
| 2026-05-05 05:49 | 47.29870 | 7.68702 | 20167 ft | 421 kts | 274° |
| 2026-05-05 05:50 | 47.30280 | 7.64422 | 20776 ft | 424 kts | 277° |
| 2026-05-05 05:50 | 47.30928 | 7.60150 | 21342 ft | 430 kts | 283° |
| 2026-05-05 05:50 | 47.31854 | 7.55935 | 21905 ft | 434 kts | 285° |
| 2026-05-05 05:50 | 47.32799 | 7.51742 | 22458 ft | 437 kts | 285° |
| 2026-05-05 05:51 | 47.33752 | 7.47476 | 23030 ft | 440 kts | 285° |
| 2026-05-05 05:51 | 47.34703 | 7.43159 | 23432 ft | 446 kts | 285° |
| 2026-05-05 05:51 | 47.35658 | 7.38780 | 23814 ft | 451 kts | 285° |
| 2026-05-05 05:51 | 47.36627 | 7.34313 | 24347 ft | 451 kts | 285° |
| 2026-05-05 05:52 | 47.37568 | 7.29960 | 24854 ft | 452 kts | 285° |
| 2026-05-05 05:52 | 47.38523 | 7.25531 | 25282 ft | 455 kts | 284° |
| 2026-05-05 05:52 | 47.39486 | 7.21058 | 25642 ft | 459 kts | 284° |
| 2026-05-05 05:52 | 47.40453 | 7.16550 | 26032 ft | 461 kts | 284° |
| 2026-05-05 05:53 | 47.41266 | 7.11968 | 26400 ft | 462 kts | 279° |
| 2026-05-05 05:53 | 47.41935 | 7.07316 | 26796 ft | 464 kts | 278° |
| 2026-05-05 05:53 | 47.42599 | 7.02631 | 27163 ft | 468 kts | 278° |
| 2026-05-05 05:53 | 47.43273 | 6.97918 | 27515 ft | 471 kts | 278° |
| 2026-05-05 05:54 | 47.43960 | 6.93169 | 27889 ft | 473 kts | 278° |
| 2026-05-05 05:54 | 47.44653 | 6.88396 | 28259 ft | 475 kts | 278° |
| 2026-05-05 05:54 | 47.45350 | 6.83610 | 28610 ft | 478 kts | 278° |
| 2026-05-05 05:54 | 47.46046 | 6.78808 | 28934 ft | 480 kts | 278° |
| 2026-05-05 05:55 | 47.46981 | 6.74072 | 29158 ft | 487 kts | 291° |
| 2026-05-05 05:55 | 47.48839 | 6.69840 | 29458 ft | 498 kts | 310° |
| 2026-05-05 05:55 | 47.51532 | 6.66574 | 29927 ft | 504 kts | 327° |
| 2026-05-05 05:55 | 47.54721 | 6.64386 | 30261 ft | 509 kts | 342° |
| 2026-05-05 05:56 | 47.58213 | 6.63449 | 30487 ft | 510 kts | 352° |
| 2026-05-05 05:56 | 47.61762 | 6.62865 | 30664 ft | 514 kts | 352° |
| 2026-05-05 05:56 | 47.65319 | 6.62274 | 30931 ft | 515 kts | 352° |
| 2026-05-05 05:56 | 47.68835 | 6.61650 | 31252 ft | 514 kts | 351° |
| 2026-05-05 05:57 | 47.72378 | 6.60977 | 31603 ft | 514 kts | 351° |
| 2026-05-05 05:57 | 47.75927 | 6.60270 | 31847 ft | 516 kts | 350° |
| 2026-05-05 05:57 | 47.83087 | 6.58809 | 31910 ft | 519 kts | 350° |
| 2026-05-05 05:58 | 47.90189 | 6.57370 | 31895 ft | 512 kts | 349° |
| 2026-05-05 05:58 | 47.97225 | 6.55854 | 31893 ft | 511 kts | 348° |
| 2026-05-05 05:59 | 48.04249 | 6.54136 | 31905 ft | 511 kts | 348° |
| 2026-05-05 05:59 | 48.11270 | 6.52405 | 31894 ft | 511 kts | 348° |
| 2026-05-05 06:00 | 48.18294 | 6.50700 | 31906 ft | 511 kts | 348° |
| 2026-05-05 06:00 | 48.25320 | 6.49004 | 31891 ft | 511 kts | 348° |
| 2026-05-05 06:01 | 48.32334 | 6.47306 | 31900 ft | 510 kts | 348° |
| 2026-05-05 06:01 | 48.39292 | 6.45615 | 31906 ft | 509 kts | 348° |
| 2026-05-05 06:02 | 48.46288 | 6.43908 | 31899 ft | 509 kts | 348° |
| 2026-05-05 06:02 | 48.53293 | 6.42195 | 31901 ft | 510 kts | 347° |
| 2026-05-05 06:03 | 48.60303 | 6.40476 | 31908 ft | 510 kts | 347° |
| 2026-05-05 06:03 | 48.67393 | 6.39270 | 31907 ft | 514 kts | 356° |
| 2026-05-05 06:04 | 48.74513 | 6.39826 | 31915 ft | 517 kts | 2° |
| 2026-05-05 06:04 | 48.81689 | 6.40692 | 31902 ft | 517 kts | 2° |
| 2026-05-05 06:05 | 48.88887 | 6.41475 | 31907 ft | 517 kts | 2° |
| 2026-05-05 06:05 | 48.94856 | 6.42086 | 31912 ft | 517 kts | 1° |
| 2026-05-05 06:06 | 49.02035 | 6.42824 | 31905 ft | 517 kts | 1° |
| 2026-05-05 06:06 | 49.09196 | 6.43279 | 31893 ft | 513 kts | 354° |
| 2026-05-05 06:07 | 49.16238 | 6.41943 | 31896 ft | 506 kts | 343° |
| 2026-05-05 06:07 | 49.23009 | 6.39147 | 31875 ft | 503 kts | 340° |
| 2026-05-05 06:08 | 49.29759 | 6.36254 | 31874 ft | 503 kts | 340° |
| 2026-05-05 06:08 | 49.36472 | 6.33451 | 31874 ft | 503 kts | 341° |
| 2026-05-05 06:09 | 49.43222 | 6.30656 | 31882 ft | 502 kts | 341° |
| 2026-05-05 06:09 | 49.49970 | 6.27848 | 31882 ft | 502 kts | 341° |
| 2026-05-05 06:10 | 49.56680 | 6.24885 | 31892 ft | 501 kts | 339° |
| 2026-05-05 06:10 | 49.63341 | 6.21741 | 31889 ft | 500 kts | 339° |
| 2026-05-05 06:11 | 49.69981 | 6.18599 | 31884 ft | 498 kts | 339° |
| 2026-05-05 06:11 | 49.76601 | 6.15491 | 31873 ft | 497 kts | 339° |
| 2026-05-05 06:12 | 49.83219 | 6.12389 | 31893 ft | 496 kts | 339° |
| 2026-05-05 06:12 | 49.89826 | 6.09286 | 31878 ft | 496 kts | 339° |
| 2026-05-05 06:13 | 49.96426 | 6.06175 | 31886 ft | 496 kts | 339° |
| 2026-05-05 06:13 | 50.02991 | 6.03072 | 31884 ft | 496 kts | 339° |
| 2026-05-05 06:14 | 50.09602 | 5.99939 | 31893 ft | 496 kts | 338° |
| 2026-05-05 06:14 | 50.16205 | 5.96799 | 31889 ft | 496 kts | 338° |
| 2026-05-05 06:15 | 50.22809 | 5.93648 | 31886 ft | 497 kts | 338° |
| 2026-05-05 06:15 | 50.29435 | 5.90480 | 31899 ft | 499 kts | 338° |
| 2026-05-05 06:16 | 50.36089 | 5.87288 | 31891 ft | 500 kts | 338° |
| 2026-05-05 06:16 | 50.42737 | 5.84091 | 31888 ft | 499 kts | 338° |
| 2026-05-05 06:17 | 50.49373 | 5.80890 | 31894 ft | 498 kts | 338° |
| 2026-05-05 06:17 | 50.55987 | 5.77691 | 31899 ft | 496 kts | 338° |
| 2026-05-05 06:18 | 50.62576 | 5.74495 | 31896 ft | 494 kts | 338° |
| 2026-05-05 06:18 | 50.69134 | 5.71302 | 31905 ft | 492 kts | 338° |
| 2026-05-05 06:19 | 50.75668 | 5.68113 | 31913 ft | 491 kts | 338° |
| 2026-05-05 06:19 | 50.82133 | 5.64947 | 31913 ft | 489 kts | 338° |
| 2026-05-05 06:20 | 50.88632 | 5.61755 | 31910 ft | 488 kts | 338° |
| 2026-05-05 06:20 | 50.95121 | 5.58559 | 31908 ft | 489 kts | 338° |
| 2026-05-05 06:21 | 51.01628 | 5.55344 | 31917 ft | 490 kts | 338° |
| 2026-05-05 06:21 | 51.08114 | 5.52131 | 31912 ft | 491 kts | 338° |
| 2026-05-05 06:22 | 51.14648 | 5.48885 | 31909 ft | 492 kts | 338° |
| 2026-05-05 06:22 | 51.21182 | 5.45630 | 31922 ft | 492 kts | 338° |
| 2026-05-05 06:23 | 51.27717 | 5.42364 | 31912 ft | 491 kts | 338° |
| 2026-05-05 06:23 | 51.34237 | 5.39096 | 31936 ft | 490 kts | 338° |
| 2026-05-05 06:24 | 51.40630 | 5.35435 | 31929 ft | 483 kts | 329° |
| 2026-05-05 06:24 | 51.46498 | 5.30463 | 31961 ft | 479 kts | 326° |
| 2026-05-05 06:25 | 51.52349 | 5.25350 | 31942 ft | 479 kts | 327° |
| 2026-05-05 06:25 | 51.58210 | 5.20267 | 31935 ft | 478 kts | 327° |
| 2026-05-05 06:26 | 51.64079 | 5.15206 | 31937 ft | 478 kts | 327° |
| 2026-05-05 06:26 | 51.69942 | 5.10145 | 31949 ft | 478 kts | 327° |
| 2026-05-05 06:27 | 51.78717 | 5.02543 | 31935 ft | 476 kts | 327° |
| 2026-05-05 06:28 | 51.84506 | 4.97507 | 31941 ft | 475 kts | 327° |
| 2026-05-05 06:28 | 51.90331 | 4.92425 | 31946 ft | 474 kts | 327° |
| 2026-05-05 06:29 | 51.96147 | 4.87334 | 31979 ft | 474 kts | 327° |
| 2026-05-05 06:29 | 52.01937 | 4.82251 | 31953 ft | 472 kts | 327° |
| 2026-05-05 06:30 | 52.07711 | 4.77169 | 31954 ft | 471 kts | 327° |
| 2026-05-05 06:30 | 52.13475 | 4.72080 | 31976 ft | 470 kts | 327° |
| 2026-05-05 06:31 | 52.19187 | 4.67020 | 31977 ft | 470 kts | 327° |
| 2026-05-05 06:31 | 52.24929 | 4.61919 | 31964 ft | 470 kts | 327° |
| 2026-05-05 06:32 | 52.30662 | 4.56812 | 31967 ft | 469 kts | 327° |
| 2026-05-05 06:32 | 52.36385 | 4.51698 | 31970 ft | 469 kts | 327° |
| 2026-05-05 06:33 | 52.42105 | 4.46572 | 31970 ft | 468 kts | 327° |
| 2026-05-05 06:33 | 52.47826 | 4.41427 | 31979 ft | 469 kts | 328° |
| 2026-05-05 06:34 | 52.53544 | 4.36273 | 31982 ft | 469 kts | 328° |
| 2026-05-05 06:34 | 52.59167 | 4.31189 | 31982 ft | 469 kts | 328° |
| 2026-05-05 06:35 | 52.64885 | 4.26002 | 31983 ft | 469 kts | 328° |
| 2026-05-05 06:35 | 52.70568 | 4.20832 | 32006 ft | 470 kts | 328° |
| 2026-05-05 06:36 | 52.76297 | 4.15604 | 31992 ft | 470 kts | 328° |
| 2026-05-05 06:36 | 52.82020 | 4.10368 | 31991 ft | 470 kts | 328° |
| 2026-05-05 06:37 | 52.87745 | 4.05112 | 31990 ft | 470 kts | 328° |
| 2026-05-05 06:37 | 52.93464 | 3.99846 | 31991 ft | 471 kts | 328° |
| 2026-05-05 06:38 | 52.99181 | 3.94565 | 31999 ft | 471 kts | 329° |
| 2026-05-05 06:38 | 53.04906 | 3.89262 | 31996 ft | 470 kts | 329° |
| 2026-05-05 06:39 | 53.10619 | 3.83952 | 32005 ft | 470 kts | 329° |
| 2026-05-05 06:39 | 53.16288 | 3.78668 | 32005 ft | 470 kts | 329° |
| 2026-05-05 06:40 | 53.22020 | 3.73308 | 32014 ft | 469 kts | 329° |
| 2026-05-05 06:40 | 53.27678 | 3.68001 | 32011 ft | 469 kts | 329° |
| 2026-05-05 06:41 | 53.33366 | 3.62649 | 32015 ft | 469 kts | 329° |
| 2026-05-05 06:41 | 53.39047 | 3.57288 | 32012 ft | 469 kts | 329° |
| 2026-05-05 06:42 | 53.44792 | 3.52083 | 32012 ft | 469 kts | 332° |
| 2026-05-05 06:42 | 53.50642 | 3.47189 | 32016 ft | 470 kts | 332° |
| 2026-05-05 06:43 | 53.56499 | 3.42292 | 32013 ft | 471 kts | 332° |
| 2026-05-05 06:43 | 53.62346 | 3.37327 | 32014 ft | 471 kts | 332° |
| 2026-05-05 06:44 | 53.68192 | 3.32312 | 32010 ft | 471 kts | 332° |
| 2026-05-05 06:44 | 53.73994 | 3.27311 | 32014 ft | 471 kts | 332° |
| 2026-05-05 06:45 | 53.79833 | 3.22265 | 32011 ft | 471 kts | 332° |
| 2026-05-05 06:45 | 53.85665 | 3.17210 | 32008 ft | 471 kts | 332° |
| 2026-05-05 06:46 | 53.91500 | 3.12139 | 32010 ft | 471 kts | 332° |
| 2026-05-05 06:46 | 53.97332 | 3.07054 | 32018 ft | 471 kts | 332° |
| 2026-05-05 06:47 | 54.03160 | 3.01956 | 32008 ft | 471 kts | 332° |
| 2026-05-05 06:47 | 54.08979 | 2.96849 | 32006 ft | 470 kts | 332° |
| 2026-05-05 06:48 | 54.14797 | 2.91727 | 32008 ft | 470 kts | 332° |
| 2026-05-05 06:48 | 54.20603 | 2.86599 | 32009 ft | 470 kts | 332° |
| 2026-05-05 06:49 | 54.26410 | 2.81456 | 32011 ft | 470 kts | 331° |
| 2026-05-05 06:49 | 54.32204 | 2.76305 | 32007 ft | 469 kts | 330° |
| 2026-05-05 06:50 | 54.37987 | 2.71149 | 32008 ft | 468 kts | 330° |
| 2026-05-05 06:50 | 54.43768 | 2.65977 | 32004 ft | 468 kts | 330° |
| 2026-05-05 06:51 | 54.49540 | 2.60799 | 32015 ft | 468 kts | 330° |
| 2026-05-05 06:51 | 54.55277 | 2.55633 | 32000 ft | 468 kts | 330° |
| 2026-05-05 06:52 | 54.61037 | 2.50432 | 32003 ft | 467 kts | 330° |
| 2026-05-05 06:52 | 54.66783 | 2.45225 | 31999 ft | 467 kts | 330° |
| 2026-05-05 06:53 | 54.72529 | 2.40002 | 31998 ft | 466 kts | 330° |
| 2026-05-05 06:53 | 54.78269 | 2.34769 | 32005 ft | 466 kts | 329° |
| 2026-05-05 06:54 | 54.83026 | 2.30418 | 31997 ft | 465 kts | 329° |
| 2026-05-05 06:54 | 54.88741 | 2.25175 | 31992 ft | 464 kts | 329° |
| 2026-05-05 06:55 | 54.94443 | 2.19927 | 31992 ft | 463 kts | 329° |
| 2026-05-05 06:55 | 55.00133 | 2.14675 | 32014 ft | 463 kts | 328° |
| 2026-05-05 06:56 | 55.05818 | 2.09409 | 31982 ft | 462 kts | 328° |
| 2026-05-05 06:56 | 55.11485 | 2.04142 | 31982 ft | 461 kts | 328° |
| 2026-05-05 06:57 | 55.17148 | 1.98862 | 31977 ft | 461 kts | 328° |
| 2026-05-05 06:57 | 55.22812 | 1.93565 | 31974 ft | 461 kts | 328° |
| 2026-05-05 06:58 | 55.28437 | 1.88288 | 31987 ft | 461 kts | 328° |
| 2026-05-05 06:58 | 55.34088 | 1.82967 | 31983 ft | 461 kts | 328° |
| 2026-05-05 06:59 | 55.39737 | 1.77632 | 31977 ft | 461 kts | 328° |
| 2026-05-05 06:59 | 55.45383 | 1.72282 | 31975 ft | 460 kts | 328° |
| 2026-05-05 07:00 | 55.51022 | 1.66921 | 31974 ft | 460 kts | 328° |
| 2026-05-05 07:00 | 55.56664 | 1.61540 | 31982 ft | 460 kts | 328° |
| 2026-05-05 07:01 | 55.62265 | 1.56179 | 31979 ft | 460 kts | 328° |
| 2026-05-05 07:01 | 55.67892 | 1.50777 | 31969 ft | 460 kts | 328° |
| 2026-05-05 07:02 | 55.73515 | 1.45361 | 31969 ft | 460 kts | 328° |
| 2026-05-05 07:02 | 55.79141 | 1.39924 | 31992 ft | 460 kts | 327° |
| 2026-05-05 07:03 | 55.84753 | 1.34483 | 31974 ft | 459 kts | 327° |
| 2026-05-05 07:03 | 55.90359 | 1.29029 | 31969 ft | 458 kts | 327° |
| 2026-05-05 07:04 | 55.95951 | 1.23571 | 31972 ft | 457 kts | 327° |
| 2026-05-05 07:04 | 56.01496 | 1.18140 | 31968 ft | 457 kts | 327° |
| 2026-05-05 07:05 | 56.07076 | 1.12657 | 31961 ft | 457 kts | 327° |
| 2026-05-05 07:05 | 56.12643 | 1.07168 | 31971 ft | 457 kts | 327° |
| 2026-05-05 07:06 | 56.18216 | 1.01656 | 31968 ft | 457 kts | 327° |
| 2026-05-05 07:06 | 56.23786 | 0.96128 | 31970 ft | 457 kts | 327° |
| 2026-05-05 07:07 | 56.29321 | 0.90615 | 31971 ft | 457 kts | 327° |
| 2026-05-05 07:07 | 56.34891 | 0.85052 | 31968 ft | 457 kts | 327° |
| 2026-05-05 07:08 | 56.40449 | 0.79480 | 31971 ft | 456 kts | 327° |
| 2026-05-05 07:08 | 56.45997 | 0.73899 | 31978 ft | 456 kts | 327° |
| 2026-05-05 07:09 | 56.51532 | 0.68313 | 31980 ft | 455 kts | 327° |
| 2026-05-05 07:09 | 56.57058 | 0.62717 | 31983 ft | 455 kts | 327° |
| 2026-05-05 07:10 | 56.62580 | 0.57105 | 31985 ft | 455 kts | 327° |
| 2026-05-05 07:10 | 56.68099 | 0.51479 | 31982 ft | 454 kts | 327° |
| 2026-05-05 07:11 | 56.73569 | 0.45883 | 31987 ft | 453 kts | 326° |
| 2026-05-05 07:11 | 56.79066 | 0.40241 | 31989 ft | 453 kts | 326° |
| 2026-05-05 07:12 | 56.84556 | 0.34585 | 32022 ft | 453 kts | 326° |
| 2026-05-05 07:12 | 56.90056 | 0.28902 | 31994 ft | 453 kts | 326° |
| 2026-05-05 07:13 | 56.95542 | 0.23213 | 31989 ft | 453 kts | 326° |
| 2026-05-05 07:13 | 57.01016 | 0.17517 | 31994 ft | 452 kts | 326° |
| 2026-05-05 07:14 | 57.06482 | 0.11810 | 31995 ft | 452 kts | 326° |
| 2026-05-05 07:14 | 57.11909 | 0.06124 | 32035 ft | 451 kts | 326° |
| 2026-05-05 07:15 | 57.17358 | 0.00397 | 32003 ft | 450 kts | 326° |
| 2026-05-05 07:15 | 57.22782 | -0.05325 | 31995 ft | 448 kts | 326° |
| 2026-05-05 07:16 | 57.28176 | -0.11033 | 32004 ft | 446 kts | 326° |
| 2026-05-05 07:16 | 57.33554 | -0.16747 | 32001 ft | 445 kts | 326° |
| 2026-05-05 07:17 | 57.38927 | -0.22474 | 32044 ft | 445 kts | 325° |
| 2026-05-05 07:17 | 57.44298 | -0.28218 | 32015 ft | 446 kts | 325° |
| 2026-05-05 07:18 | 57.49672 | -0.33986 | 32014 ft | 446 kts | 325° |
| 2026-05-05 07:18 | 57.55017 | -0.39741 | 32013 ft | 447 kts | 325° |
| 2026-05-05 07:19 | 57.60395 | -0.45552 | 32023 ft | 447 kts | 325° |
| 2026-05-05 07:19 | 57.65771 | -0.51379 | 32072 ft | 447 kts | 325° |
| 2026-05-05 07:20 | 57.71086 | -0.57394 | 32026 ft | 444 kts | 320° |
| 2026-05-05 07:20 | 57.75951 | -0.64417 | 32024 ft | 441 kts | 317° |
| 2026-05-05 07:21 | 57.80769 | -0.71513 | 32028 ft | 440 kts | 317° |
| 2026-05-05 07:21 | 57.85591 | -0.78600 | 32037 ft | 440 kts | 317° |
| 2026-05-05 07:22 | 57.90407 | -0.85676 | 32034 ft | 440 kts | 317° |
| 2026-05-05 07:22 | 57.95233 | -0.92782 | 32058 ft | 440 kts | 317° |
| 2026-05-05 07:23 | 58.00041 | -0.99881 | 32050 ft | 438 kts | 317° |
| 2026-05-05 07:23 | 58.04825 | -1.06971 | 32049 ft | 436 kts | 317° |
| 2026-05-05 07:24 | 58.09584 | -1.14050 | 32050 ft | 435 kts | 317° |
| 2026-05-05 07:24 | 58.14297 | -1.21086 | 32054 ft | 434 kts | 317° |
| 2026-05-05 07:25 | 58.19037 | -1.28189 | 32048 ft | 435 kts | 317° |
| 2026-05-05 07:25 | 58.23783 | -1.35325 | 32062 ft | 436 kts | 317° |
| 2026-05-05 07:26 | 58.28521 | -1.42470 | 32050 ft | 435 kts | 317° |
| 2026-05-05 07:26 | 58.33252 | -1.49632 | 32074 ft | 434 kts | 317° |
| 2026-05-05 07:27 | 58.37965 | -1.56791 | 32073 ft | 433 kts | 317° |
| 2026-05-05 07:27 | 58.42672 | -1.63969 | 32075 ft | 433 kts | 316° |
| 2026-05-05 07:28 | 58.47374 | -1.71163 | 32120 ft | 433 kts | 316° |
| 2026-05-05 07:28 | 58.52071 | -1.78375 | 32079 ft | 432 kts | 316° |
| 2026-05-05 07:29 | 58.56721 | -1.85539 | 32065 ft | 432 kts | 316° |
| 2026-05-05 07:29 | 58.61391 | -1.92759 | 32073 ft | 430 kts | 316° |
| 2026-05-05 07:30 | 58.66044 | -1.99980 | 32072 ft | 430 kts | 316° |
| 2026-05-05 07:30 | 58.73009 | -2.10836 | 32081 ft | 429 kts | 316° |
| 2026-05-05 07:31 | 58.77646 | -2.18097 | 32079 ft | 430 kts | 316° |
| 2026-05-05 07:31 | 58.82285 | -2.25385 | 32078 ft | 430 kts | 316° |
| 2026-05-05 07:32 | 58.86891 | -2.32647 | 32087 ft | 431 kts | 316° |
| 2026-05-05 07:32 | 58.91532 | -2.39991 | 32087 ft | 431 kts | 316° |
| 2026-05-05 07:33 | 58.96175 | -2.47364 | 32079 ft | 431 kts | 316° |
| 2026-05-05 07:33 | 59.00810 | -2.54750 | 32104 ft | 431 kts | 316° |
| 2026-05-05 07:34 | 59.05445 | -2.62163 | 32085 ft | 431 kts | 316° |
| 2026-05-05 07:34 | 59.10071 | -2.69589 | 32089 ft | 431 kts | 316° |
| 2026-05-05 07:35 | 59.14684 | -2.77021 | 32083 ft | 430 kts | 316° |
| 2026-05-05 07:35 | 59.19289 | -2.84466 | 32096 ft | 430 kts | 316° |
| 2026-05-05 07:36 | 59.23889 | -2.91931 | 32089 ft | 430 kts | 316° |
| 2026-05-05 07:36 | 59.28447 | -2.99355 | 32154 ft | 429 kts | 316° |
| 2026-05-05 07:37 | 59.33035 | -3.06855 | 32094 ft | 430 kts | 316° |
| 2026-05-05 07:37 | 59.37614 | -3.14366 | 32087 ft | 429 kts | 315° |
| 2026-05-05 07:38 | 59.42176 | -3.21876 | 32091 ft | 427 kts | 315° |
| 2026-05-05 07:38 | 59.46724 | -3.29391 | 32084 ft | 426 kts | 316° |
| 2026-05-05 07:39 | 59.51261 | -3.36918 | 32092 ft | 427 kts | 316° |
| 2026-05-05 07:39 | 59.55800 | -3.44473 | 32154 ft | 428 kts | 315° |
| 2026-05-05 07:40 | 59.60349 | -3.52074 | 32096 ft | 428 kts | 315° |
| 2026-05-05 07:40 | 59.64881 | -3.59671 | 32090 ft | 426 kts | 315° |
| 2026-05-05 07:41 | 59.69391 | -3.67260 | 32092 ft | 424 kts | 315° |
| 2026-05-05 07:41 | 59.73122 | -3.73560 | 32095 ft | 424 kts | 315° |
| 2026-05-05 07:42 | 59.77601 | -3.81151 | 32090 ft | 423 kts | 315° |
| 2026-05-05 07:42 | 59.82798 | -3.89992 | 32092 ft | 423 kts | 315° |
| 2026-05-05 07:43 | 59.86544 | -3.96388 | 32081 ft | 423 kts | 315° |
| 2026-05-05 07:43 | 59.91003 | -4.04026 | 32087 ft | 422 kts | 315° |
| 2026-05-05 07:44 | 59.95453 | -4.11676 | 32095 ft | 422 kts | 315° |
| 2026-05-05 07:44 | 59.99896 | -4.19343 | 32090 ft | 422 kts | 315° |
| 2026-05-05 07:45 | 60.04317 | -4.27001 | 32099 ft | 422 kts | 315° |
| 2026-05-05 07:45 | 60.08753 | -4.34713 | 32097 ft | 422 kts | 315° |
| 2026-05-05 07:46 | 60.13192 | -4.42459 | 32124 ft | 423 kts | 315° |
| 2026-05-05 07:46 | 60.17613 | -4.50200 | 32101 ft | 420 kts | 315° |
| 2026-05-05 07:47 | 60.21974 | -4.57865 | 32096 ft | 418 kts | 314° |
| 2026-05-05 07:47 | 60.26343 | -4.65573 | 32098 ft | 417 kts | 314° |
| 2026-05-05 07:48 | 60.30694 | -4.73280 | 32092 ft | 416 kts | 315° |
| 2026-05-05 07:48 | 60.35041 | -4.81010 | 32098 ft | 418 kts | 314° |
| 2026-05-05 07:49 | 60.39407 | -4.88799 | 32138 ft | 420 kts | 314° |
| 2026-05-05 07:49 | 60.43785 | -4.96638 | 32111 ft | 419 kts | 314° |
| 2026-05-05 07:50 | 60.48125 | -5.04436 | 32105 ft | 418 kts | 314° |
| 2026-05-05 07:50 | 60.52460 | -5.12257 | 32110 ft | 416 kts | 314° |
| 2026-05-05 07:51 | 60.56780 | -5.20080 | 32098 ft | 416 kts | 314° |
| 2026-05-05 07:51 | 60.61089 | -5.27914 | 32100 ft | 415 kts | 314° |
| 2026-05-05 07:52 | 60.65384 | -5.35749 | 32163 ft | 415 kts | 314° |
| 2026-05-05 07:52 | 60.69683 | -5.43623 | 32107 ft | 414 kts | 314° |
| 2026-05-05 07:53 | 60.73962 | -5.51487 | 32106 ft | 412 kts | 314° |
| 2026-05-05 07:53 | 60.78218 | -5.59340 | 32108 ft | 412 kts | 314° |
| 2026-05-05 07:54 | 60.82473 | -5.67220 | 32111 ft | 412 kts | 314° |
| 2026-05-05 07:54 | 60.86727 | -5.75130 | 32110 ft | 413 kts | 314° |
| 2026-05-05 07:55 | 60.90984 | -5.83073 | 32117 ft | 414 kts | 314° |
| 2026-05-05 07:55 | 60.95222 | -5.91011 | 32130 ft | 415 kts | 314° |
| 2026-05-05 07:56 | 60.99481 | -5.99013 | 32114 ft | 413 kts | 314° |
| 2026-05-05 07:56 | 61.03748 | -6.06909 | 32111 ft | 411 kts | 314° |
| 2026-05-05 07:57 | 61.08030 | -6.14711 | 32119 ft | 410 kts | 314° |
| 2026-05-05 07:57 | 61.12299 | -6.22523 | 32119 ft | 409 kts | 314° |
| 2026-05-05 07:58 | 61.16555 | -6.30362 | 32116 ft | 409 kts | 314° |
| 2026-05-05 07:58 | 61.20785 | -6.38193 | 32136 ft | 411 kts | 314° |
| 2026-05-05 07:59 | 61.25059 | -6.46136 | 32130 ft | 412 kts | 314° |
| 2026-05-05 07:59 | 61.29322 | -6.54090 | 32125 ft | 412 kts | 314° |
| 2026-05-05 08:00 | 61.33578 | -6.62058 | 32125 ft | 411 kts | 314° |
| 2026-05-05 08:00 | 61.37810 | -6.70013 | 32124 ft | 411 kts | 314° |
| 2026-05-05 08:01 | 61.42046 | -6.78007 | 32131 ft | 410 kts | 314° |
| 2026-05-05 08:01 | 61.46277 | -6.86021 | 32131 ft | 410 kts | 314° |
| 2026-05-05 08:02 | 61.50499 | -6.94049 | 32131 ft | 410 kts | 314° |
| 2026-05-05 08:02 | 61.54668 | -7.02006 | 32130 ft | 410 kts | 314° |
| 2026-05-05 08:03 | 61.58876 | -7.10071 | 32116 ft | 410 kts | 314° |
| 2026-05-05 08:03 | 61.63052 | -7.18102 | 32133 ft | 410 kts | 314° |
| 2026-05-05 08:04 | 61.67287 | -7.26281 | 32144 ft | 411 kts | 314° |
| 2026-05-05 08:04 | 61.71468 | -7.34384 | 32142 ft | 411 kts | 313° |
| 2026-05-05 08:05 | 61.75680 | -7.42580 | 32143 ft | 412 kts | 313° |
| 2026-05-05 08:05 | 61.79887 | -7.50799 | 32143 ft | 412 kts | 313° |
| 2026-05-05 08:06 | 61.84084 | -7.59028 | 32133 ft | 411 kts | 313° |
| 2026-05-05 08:06 | 61.88263 | -7.67256 | 32138 ft | 410 kts | 313° |
| 2026-05-05 08:07 | 61.92439 | -7.75509 | 32135 ft | 410 kts | 313° |
| 2026-05-05 08:07 | 61.96606 | -7.83777 | 32138 ft | 409 kts | 313° |
| 2026-05-05 08:08 | 62.00743 | -7.92019 | 32207 ft | 409 kts | 313° |
| 2026-05-05 08:08 | 62.04908 | -8.00350 | 32152 ft | 410 kts | 313° |
| 2026-05-05 08:09 | 62.09061 | -8.08688 | 32136 ft | 410 kts | 313° |
| 2026-05-05 08:09 | 62.13216 | -8.17062 | 32144 ft | 410 kts | 313° |
| 2026-05-05 08:10 | 62.17356 | -8.25439 | 32139 ft | 410 kts | 313° |
| 2026-05-05 08:10 | 62.21463 | -8.33784 | 32139 ft | 410 kts | 313° |
| 2026-05-05 08:11 | 62.25598 | -8.42219 | 32139 ft | 410 kts | 313° |
| 2026-05-05 08:11 | 62.29731 | -8.50684 | 32151 ft | 412 kts | 313° |
| 2026-05-05 08:12 | 62.33880 | -8.59217 | 32150 ft | 413 kts | 313° |
| 2026-05-05 08:12 | 62.38028 | -8.67779 | 32141 ft | 413 kts | 313° |
| 2026-05-05 08:13 | 62.42181 | -8.76386 | 32144 ft | 414 kts | 313° |
| 2026-05-05 08:13 | 62.46328 | -8.85016 | 32132 ft | 413 kts | 313° |
| 2026-05-05 08:14 | 62.50424 | -8.93574 | 32147 ft | 412 kts | 312° |
| 2026-05-05 08:14 | 62.54534 | -9.02198 | 32191 ft | 411 kts | 313° |
| 2026-05-05 08:15 | 62.58649 | -9.10868 | 32162 ft | 412 kts | 313° |
| 2026-05-05 08:15 | 62.62758 | -9.19561 | 32165 ft | 412 kts | 312° |
| 2026-05-05 08:16 | 62.66869 | -9.28290 | 32160 ft | 413 kts | 312° |
| 2026-05-05 08:16 | 62.70951 | -9.36996 | 32158 ft | 413 kts | 312° |
| 2026-05-05 08:17 | 62.75062 | -9.45799 | 32160 ft | 413 kts | 312° |
| 2026-05-05 08:17 | 62.79161 | -9.54614 | 32142 ft | 413 kts | 312° |
| 2026-05-05 08:18 | 62.83248 | -9.63441 | 32176 ft | 417 kts | 313° |
| 2026-05-05 08:18 | 62.87386 | -9.72414 | 32176 ft | 420 kts | 312° |
| 2026-05-05 08:19 | 62.91540 | -9.81455 | 32158 ft | 420 kts | 312° |
| 2026-05-05 08:19 | 62.95670 | -9.90486 | 32162 ft | 418 kts | 312° |
| 2026-05-05 08:20 | 62.99782 | -9.99510 | 32173 ft | 417 kts | 312° |
| 2026-05-05 08:20 | 63.04003 | -10.08282 | 32167 ft | 417 kts | 314° |
| 2026-05-05 08:21 | 63.08299 | -10.16752 | 32208 ft | 417 kts | 315° |
| 2026-05-05 08:21 | 63.12640 | -10.25369 | 32181 ft | 421 kts | 315° |
| 2026-05-05 08:22 | 63.16991 | -10.34115 | 32181 ft | 423 kts | 314° |
| 2026-05-05 08:22 | 63.21348 | -10.42947 | 32178 ft | 425 kts | 314° |
| 2026-05-05 08:23 | 63.25713 | -10.51841 | 32177 ft | 426 kts | 314° |
| 2026-05-05 08:23 | 63.30050 | -10.60716 | 32176 ft | 426 kts | 314° |
| 2026-05-05 08:24 | 63.34395 | -10.69646 | 32220 ft | 425 kts | 314° |
| 2026-05-05 08:24 | 63.38742 | -10.78620 | 32181 ft | 426 kts | 314° |
| 2026-05-05 08:25 | 63.43088 | -10.87630 | 32186 ft | 426 kts | 314° |
| 2026-05-05 08:25 | 63.47430 | -10.96670 | 32185 ft | 427 kts | 314° |
| 2026-05-05 08:26 | 63.51775 | -11.05757 | 32182 ft | 427 kts | 314° |
| 2026-05-05 08:26 | 63.56089 | -11.14816 | 32191 ft | 427 kts | 314° |
| 2026-05-05 08:27 | 63.60424 | -11.23962 | 32190 ft | 427 kts | 314° |
| 2026-05-05 08:27 | 63.64767 | -11.33164 | 32200 ft | 430 kts | 314° |
| 2026-05-05 08:28 | 63.69131 | -11.42454 | 32192 ft | 432 kts | 314° |
| 2026-05-05 08:28 | 63.73478 | -11.51745 | 32192 ft | 434 kts | 314° |
| 2026-05-05 08:29 | 63.77855 | -11.61144 | 32205 ft | 434 kts | 314° |
| 2026-05-05 08:30 | 63.84414 | -11.75304 | 32173 ft | 434 kts | 314° |
| 2026-05-05 08:30 | 63.88759 | -11.84739 | 32222 ft | 432 kts | 314° |
| 2026-05-05 08:31 | 63.92370 | -11.92615 | 32208 ft | 433 kts | 314° |
| 2026-05-05 08:31 | 63.96710 | -12.02119 | 32210 ft | 433 kts | 314° |
| 2026-05-05 08:32 | 64.01057 | -12.11682 | 32212 ft | 434 kts | 314° |
| 2026-05-05 08:32 | 64.05403 | -12.21284 | 32209 ft | 435 kts | 314° |
| 2026-05-05 08:33 | 64.09720 | -12.30867 | 32212 ft | 435 kts | 314° |
| 2026-05-05 08:33 | 64.14070 | -12.40568 | 32215 ft | 435 kts | 314° |
| 2026-05-05 08:34 | 64.18403 | -12.50273 | 32215 ft | 435 kts | 313° |
| 2026-05-05 08:34 | 64.22726 | -12.60004 | 32218 ft | 435 kts | 313° |
| 2026-05-05 08:35 | 64.27016 | -12.69704 | 32219 ft | 435 kts | 313° |
| 2026-05-05 08:35 | 64.31330 | -12.79503 | 32218 ft | 435 kts | 313° |
| 2026-05-05 08:36 | 64.35626 | -12.89306 | 32213 ft | 433 kts | 313° |
| 2026-05-05 08:36 | 64.39878 | -12.99055 | 32230 ft | 432 kts | 313° |
| 2026-05-05 08:37 | 64.44149 | -13.08895 | 32231 ft | 434 kts | 313° |
| 2026-05-05 08:37 | 64.48433 | -13.18811 | 32227 ft | 436 kts | 313° |
| 2026-05-05 08:38 | 64.52729 | -13.28798 | 32234 ft | 438 kts | 313° |
| 2026-05-05 08:38 | 64.57031 | -13.38849 | 32231 ft | 439 kts | 313° |
| 2026-05-05 08:39 | 64.61335 | -13.48949 | 32223 ft | 439 kts | 313° |
| 2026-05-05 08:39 | 64.65627 | -13.59072 | 32228 ft | 439 kts | 313° |
| 2026-05-05 08:40 | 64.69918 | -13.69243 | 32220 ft | 440 kts | 313° |
| 2026-05-05 08:40 | 64.74212 | -13.79467 | 32229 ft | 441 kts | 313° |
| 2026-05-05 08:41 | 64.78488 | -13.89697 | 32235 ft | 442 kts | 313° |
| 2026-05-05 08:41 | 64.82778 | -14.00012 | 32236 ft | 441 kts | 313° |
| 2026-05-05 08:42 | 64.87066 | -14.10370 | 32232 ft | 441 kts | 313° |
| 2026-05-05 08:42 | 64.91333 | -14.20728 | 32249 ft | 440 kts | 312° |
| 2026-05-05 08:43 | 64.95594 | -14.31126 | 32245 ft | 441 kts | 313° |
| 2026-05-05 08:43 | 64.99854 | -14.41572 | 32238 ft | 442 kts | 313° |
| 2026-05-05 08:44 | 65.04090 | -14.52007 | 32261 ft | 443 kts | 313° |
| 2026-05-05 08:44 | 65.08356 | -14.62568 | 32242 ft | 444 kts | 312° |
| 2026-05-05 08:45 | 65.12619 | -14.73172 | 32252 ft | 444 kts | 312° |
| 2026-05-05 08:45 | 65.16874 | -14.83812 | 32249 ft | 444 kts | 312° |
| 2026-05-05 08:46 | 65.21121 | -14.94486 | 32264 ft | 444 kts | 312° |
| 2026-05-05 08:46 | 65.25374 | -15.05229 | 32279 ft | 446 kts | 312° |
| 2026-05-05 08:47 | 65.29627 | -15.16022 | 32274 ft | 446 kts | 312° |
| 2026-05-05 08:47 | 65.33879 | -15.26870 | 32296 ft | 445 kts | 312° |
| 2026-05-05 08:48 | 65.38083 | -15.37649 | 32280 ft | 445 kts | 312° |
| 2026-05-05 08:48 | 65.42298 | -15.48511 | 32277 ft | 444 kts | 312° |
| 2026-05-05 08:49 | 65.46495 | -15.59381 | 32311 ft | 444 kts | 312° |
| 2026-05-05 08:49 | 65.50695 | -15.70317 | 32309 ft | 445 kts | 312° |
| 2026-05-05 08:50 | 65.54903 | -15.81328 | 32299 ft | 447 kts | 312° |
| 2026-05-05 08:50 | 65.59116 | -15.92408 | 32296 ft | 448 kts | 311° |
| 2026-05-05 08:51 | 65.63329 | -16.03546 | 32299 ft | 448 kts | 311° |
| 2026-05-05 08:51 | 65.67534 | -16.14719 | 32305 ft | 449 kts | 311° |
| 2026-05-05 08:52 | 65.71701 | -16.25851 | 32323 ft | 448 kts | 311° |
| 2026-05-05 08:52 | 65.75893 | -16.37108 | 32295 ft | 449 kts | 311° |
| 2026-05-05 08:53 | 65.80074 | -16.48392 | 32303 ft | 448 kts | 311° |
| 2026-05-05 08:53 | 65.84238 | -16.59692 | 32313 ft | 448 kts | 311° |
| 2026-05-05 08:54 | 65.88422 | -16.71106 | 32706 ft | 452 kts | 311° |
| 2026-05-05 08:54 | 65.90516 | -16.76841 | 33098 ft | 450 kts | 311° |
| 2026-05-05 08:54 | 65.92600 | -16.82562 | 33469 ft | 449 kts | 311° |
| 2026-05-05 08:54 | 65.94680 | -16.88288 | 33783 ft | 450 kts | 311° |
| 2026-05-05 08:55 | 65.96757 | -16.94021 | 34103 ft | 450 kts | 311° |
| 2026-05-05 08:55 | 65.98841 | -16.99790 | 34210 ft | 453 kts | 311° |
| 2026-05-05 08:55 | 66.00936 | -17.05605 | 34256 ft | 456 kts | 311° |
| 2026-05-05 08:56 | 66.05100 | -17.17206 | 34312 ft | 454 kts | 311° |
| 2026-05-05 08:56 | 66.09281 | -17.28920 | 34318 ft | 451 kts | 311° |
| 2026-05-05 08:57 | 66.13411 | -17.40551 | 34320 ft | 450 kts | 311° |
| 2026-05-05 08:57 | 66.17525 | -17.52202 | 34322 ft | 450 kts | 311° |
| 2026-05-05 08:58 | 66.21607 | -17.63824 | 34322 ft | 450 kts | 310° |
| 2026-05-05 08:58 | 66.25708 | -17.75564 | 34334 ft | 451 kts | 310° |
| 2026-05-05 08:59 | 66.29808 | -17.87362 | 34325 ft | 452 kts | 310° |
| 2026-05-05 08:59 | 66.33910 | -17.99233 | 34323 ft | 453 kts | 310° |
| 2026-05-05 09:00 | 66.38017 | -18.11183 | 34327 ft | 453 kts | 310° |
| 2026-05-05 09:00 | 66.42113 | -18.23168 | 34320 ft | 454 kts | 310° |
| 2026-05-05 09:01 | 66.46204 | -18.35202 | 34321 ft | 454 kts | 310° |
| 2026-05-05 09:01 | 66.50257 | -18.47193 | 34323 ft | 455 kts | 310° |
| 2026-05-05 09:02 | 66.54341 | -18.59343 | 34327 ft | 456 kts | 310° |
| 2026-05-05 09:02 | 66.58422 | -18.71551 | 34337 ft | 456 kts | 310° |
| 2026-05-05 09:03 | 66.62496 | -18.83805 | 34345 ft | 457 kts | 310° |
| 2026-05-05 09:03 | 66.66563 | -18.96110 | 34346 ft | 457 kts | 310° |
| 2026-05-05 09:04 | 66.70617 | -19.08444 | 34349 ft | 457 kts | 309° |
| 2026-05-05 09:04 | 66.74669 | -19.20842 | 34356 ft | 457 kts | 309° |
| 2026-05-05 09:05 | 66.78703 | -19.33257 | 34363 ft | 456 kts | 309° |
| 2026-05-05 09:05 | 66.82730 | -19.45722 | 34362 ft | 456 kts | 309° |
| 2026-05-05 09:06 | 66.86718 | -19.58135 | 34360 ft | 456 kts | 309° |
| 2026-05-05 09:06 | 66.90718 | -19.70658 | 34363 ft | 456 kts | 309° |
| 2026-05-05 09:07 | 66.94712 | -19.83232 | 34367 ft | 456 kts | 309° |
| 2026-05-05 09:07 | 66.98696 | -19.95842 | 34373 ft | 456 kts | 309° |
| 2026-05-05 09:08 | 67.02913 | -20.08002 | 34376 ft | 456 kts | 314° |
| 2026-05-05 09:08 | 67.07318 | -20.19705 | 34382 ft | 456 kts | 314° |
| 2026-05-05 09:09 | 67.11719 | -20.31451 | 34383 ft | 457 kts | 314° |
| 2026-05-05 09:09 | 67.16102 | -20.43280 | 34392 ft | 456 kts | 313° |
| 2026-05-05 09:10 | 67.20438 | -20.55085 | 34398 ft | 457 kts | 313° |
| 2026-05-05 09:10 | 67.24797 | -20.67032 | 34394 ft | 457 kts | 313° |
| 2026-05-05 09:11 | 67.29150 | -20.79028 | 34409 ft | 457 kts | 313° |
| 2026-05-05 09:11 | 67.33497 | -20.91072 | 34407 ft | 457 kts | 313° |
| 2026-05-05 09:12 | 67.37829 | -21.03145 | 34415 ft | 456 kts | 313° |
| 2026-05-05 09:12 | 67.42150 | -21.15255 | 34415 ft | 456 kts | 313° |
| 2026-05-05 09:13 | 67.46426 | -21.27307 | 34418 ft | 456 kts | 313° |
| 2026-05-05 09:13 | 67.50713 | -21.39462 | 34426 ft | 455 kts | 313° |
| 2026-05-05 09:14 | 67.54984 | -21.51636 | 34425 ft | 455 kts | 313° |
| 2026-05-05 09:14 | 67.59255 | -21.63884 | 34458 ft | 455 kts | 313° |
| 2026-05-05 09:15 | 67.63518 | -21.76180 | 34454 ft | 455 kts | 313° |
| 2026-05-05 09:15 | 67.67772 | -21.88522 | 34459 ft | 455 kts | 312° |
| 2026-05-05 09:16 | 67.72013 | -22.00895 | 34459 ft | 456 kts | 312° |
| 2026-05-05 09:16 | 67.76248 | -22.13326 | 34448 ft | 455 kts | 312° |
| 2026-05-05 09:17 | 67.80436 | -22.25690 | 34454 ft | 453 kts | 312° |
| 2026-05-05 09:17 | 67.84625 | -22.38129 | 34472 ft | 452 kts | 312° |
| 2026-05-05 09:18 | 67.88803 | -22.50609 | 34487 ft | 453 kts | 312° |
| 2026-05-05 09:18 | 67.92986 | -22.63176 | 34496 ft | 454 kts | 312° |
| 2026-05-05 09:19 | 67.96453 | -22.73648 | 34490 ft | 453 kts | 312° |
| 2026-05-05 09:19 | 68.00616 | -22.86291 | 34491 ft | 454 kts | 311° |
| 2026-05-05 09:20 | 68.04792 | -22.99049 | 34500 ft | 457 kts | 311° |
| 2026-05-05 09:20 | 68.08980 | -23.11922 | 34518 ft | 459 kts | 311° |
| 2026-05-05 09:21 | 68.13164 | -23.24858 | 34499 ft | 459 kts | 311° |
| 2026-05-05 09:21 | 68.17335 | -23.37834 | 34505 ft | 459 kts | 311° |
| 2026-05-05 09:22 | 68.21473 | -23.50787 | 34520 ft | 459 kts | 311° |
| 2026-05-05 09:22 | 68.25636 | -23.63895 | 34518 ft | 461 kts | 311° |
| 2026-05-05 09:23 | 68.29804 | -23.77101 | 34524 ft | 462 kts | 311° |
| 2026-05-05 09:23 | 68.33980 | -23.90416 | 34528 ft | 464 kts | 310° |
| 2026-05-05 09:24 | 68.38151 | -24.03798 | 34532 ft | 464 kts | 310° |
| 2026-05-05 09:24 | 68.42308 | -24.17217 | 34528 ft | 464 kts | 310° |
| 2026-05-05 09:25 | 68.46427 | -24.30594 | 34529 ft | 464 kts | 310° |
| 2026-05-05 09:25 | 68.50562 | -24.44112 | 34529 ft | 464 kts | 310° |
| 2026-05-05 09:26 | 68.54687 | -24.57679 | 34531 ft | 464 kts | 310° |
| 2026-05-05 09:26 | 68.58796 | -24.71281 | 34530 ft | 464 kts | 310° |
| 2026-05-05 09:27 | 68.62891 | -24.84924 | 34525 ft | 464 kts | 310° |
| 2026-05-05 09:27 | 68.66977 | -24.98622 | 34535 ft | 463 kts | 310° |
| 2026-05-05 09:28 | 68.71026 | -25.12281 | 34530 ft | 464 kts | 310° |
| 2026-05-05 09:28 | 68.75091 | -25.26084 | 34538 ft | 464 kts | 310° |
| 2026-05-05 09:29 | 68.79157 | -25.39979 | 34540 ft | 465 kts | 309° |
| 2026-05-05 09:29 | 68.83211 | -25.53924 | 34528 ft | 465 kts | 309° |
| 2026-05-05 09:30 | 68.87248 | -25.67900 | 34536 ft | 464 kts | 309° |
| 2026-05-05 09:30 | 68.91271 | -25.81916 | 34542 ft | 464 kts | 309° |
| 2026-05-05 09:31 | 68.95280 | -25.95977 | 34543 ft | 464 kts | 309° |
| 2026-05-05 09:31 | 68.99281 | -26.10101 | 34542 ft | 464 kts | 309° |
| 2026-05-05 09:32 | 69.03271 | -26.24279 | 34565 ft | 465 kts | 309° |
| 2026-05-05 09:32 | 69.07232 | -26.38447 | 34559 ft | 465 kts | 309° |
| 2026-05-05 09:33 | 69.11204 | -26.52746 | 34564 ft | 465 kts | 309° |
| 2026-05-05 09:33 | 69.15170 | -26.67122 | 34586 ft | 466 kts | 308° |
| 2026-05-05 09:34 | 69.19122 | -26.81542 | 34590 ft | 466 kts | 308° |
| 2026-05-05 09:34 | 69.23064 | -26.96024 | 34602 ft | 466 kts | 308° |
| 2026-05-05 09:35 | 69.26974 | -27.10482 | 34603 ft | 465 kts | 308° |
| 2026-05-05 09:35 | 69.32842 | -27.32364 | 34602 ft | 465 kts | 308° |
| 2026-05-05 09:36 | 69.36732 | -27.46993 | 34589 ft | 464 kts | 308° |
| 2026-05-05 09:36 | 69.40605 | -27.61660 | 34601 ft | 464 kts | 308° |
| 2026-05-05 09:37 | 69.44458 | -27.76349 | 34606 ft | 463 kts | 308° |
| 2026-05-05 09:37 | 69.48298 | -27.91085 | 34609 ft | 463 kts | 307° |
| 2026-05-05 09:38 | 69.52130 | -28.05895 | 34622 ft | 463 kts | 307° |
| 2026-05-05 09:38 | 69.55922 | -28.20649 | 34616 ft | 463 kts | 307° |
| 2026-05-05 09:39 | 69.59724 | -28.35547 | 34620 ft | 464 kts | 307° |
| 2026-05-05 09:39 | 69.63520 | -28.50523 | 34614 ft | 464 kts | 307° |
| 2026-05-05 09:40 | 69.67303 | -28.65551 | 34623 ft | 464 kts | 307° |
| 2026-05-05 09:40 | 69.71080 | -28.80659 | 34624 ft | 465 kts | 307° |
| 2026-05-05 09:41 | 69.74848 | -28.95838 | 34629 ft | 465 kts | 307° |
| 2026-05-05 09:41 | 69.78606 | -29.11086 | 34630 ft | 466 kts | 307° |
| 2026-05-05 09:42 | 69.82352 | -29.26390 | 34641 ft | 466 kts | 306° |
| 2026-05-05 09:42 | 69.86089 | -29.41769 | 34622 ft | 466 kts | 306° |
| 2026-05-05 09:43 | 69.89782 | -29.57077 | 34647 ft | 465 kts | 306° |
| 2026-05-05 09:43 | 69.93476 | -29.72496 | 34664 ft | 464 kts | 306° |
| 2026-05-05 09:44 | 69.97156 | -29.87952 | 34680 ft | 463 kts | 306° |
| 2026-05-05 09:44 | 70.01099 | -30.02764 | 34686 ft | 461 kts | 314° |
| 2026-05-05 09:45 | 70.05772 | -30.15567 | 34693 ft | 460 kts | 319° |
| 2026-05-05 09:45 | 70.10547 | -30.28075 | 34688 ft | 460 kts | 319° |
| 2026-05-05 09:46 | 70.15301 | -30.40667 | 34689 ft | 460 kts | 319° |
| 2026-05-05 09:46 | 70.20037 | -30.53375 | 34689 ft | 460 kts | 318° |
| 2026-05-05 09:47 | 70.24762 | -30.66170 | 34671 ft | 461 kts | 318° |
| 2026-05-05 09:47 | 70.29455 | -30.78967 | 34672 ft | 461 kts | 318° |
| 2026-05-05 09:48 | 70.34165 | -30.91893 | 34663 ft | 462 kts | 318° |
| 2026-05-05 09:48 | 70.38876 | -31.04906 | 34664 ft | 462 kts | 318° |
| 2026-05-05 09:49 | 70.43578 | -31.17975 | 34667 ft | 462 kts | 318° |
| 2026-05-05 09:49 | 70.48270 | -31.31106 | 34659 ft | 462 kts | 318° |
| 2026-05-05 09:50 | 70.52955 | -31.44307 | 34660 ft | 462 kts | 317° |
| 2026-05-05 09:50 | 70.57629 | -31.57561 | 34668 ft | 462 kts | 317° |
| 2026-05-05 09:51 | 70.62297 | -31.70890 | 34659 ft | 462 kts | 317° |
| 2026-05-05 09:51 | 70.66924 | -31.84189 | 34667 ft | 463 kts | 317° |
| 2026-05-05 09:52 | 70.71573 | -31.97640 | 34681 ft | 463 kts | 317° |
| 2026-05-05 09:52 | 70.76212 | -32.11156 | 34681 ft | 463 kts | 317° |
| 2026-05-05 09:53 | 70.80844 | -32.24744 | 34688 ft | 463 kts | 317° |
| 2026-05-05 09:53 | 70.85470 | -32.38405 | 34676 ft | 463 kts | 317° |
| 2026-05-05 09:54 | 70.90080 | -32.52112 | 34676 ft | 463 kts | 316° |
| 2026-05-05 09:54 | 70.94689 | -32.65913 | 34687 ft | 463 kts | 316° |
| 2026-05-05 09:55 | 70.99258 | -32.79685 | 34695 ft | 463 kts | 316° |
| 2026-05-05 09:55 | 71.03845 | -32.93608 | 34681 ft | 462 kts | 316° |
| 2026-05-05 09:56 | 71.08402 | -33.07537 | 34687 ft | 461 kts | 316° |
| 2026-05-05 09:56 | 71.12936 | -33.21493 | 34678 ft | 459 kts | 316° |
| 2026-05-05 09:57 | 71.17447 | -33.35473 | 34694 ft | 458 kts | 316° |
| 2026-05-05 09:57 | 71.21938 | -33.49487 | 34695 ft | 458 kts | 316° |
| 2026-05-05 09:58 | 71.26421 | -33.63575 | 34696 ft | 458 kts | 316° |
| 2026-05-05 09:58 | 71.30902 | -33.77753 | 34698 ft | 459 kts | 315° |
| 2026-05-05 09:59 | 71.35342 | -33.91901 | 34697 ft | 459 kts | 315° |
| 2026-05-05 09:59 | 71.39804 | -34.06221 | 34695 ft | 460 kts | 315° |
| 2026-05-05 10:00 | 71.44262 | -34.20629 | 34702 ft | 460 kts | 315° |
| 2026-05-05 10:00 | 71.48710 | -34.35106 | 34700 ft | 461 kts | 315° |
| 2026-05-05 10:01 | 71.53154 | -34.49673 | 34698 ft | 461 kts | 315° |
| 2026-05-05 10:01 | 71.57589 | -34.64315 | 34697 ft | 461 kts | 315° |
| 2026-05-05 10:02 | 71.62010 | -34.79017 | 34697 ft | 461 kts | 314° |
| 2026-05-05 10:02 | 71.66416 | -34.93776 | 34697 ft | 461 kts | 314° |
| 2026-05-05 10:03 | 71.70810 | -35.08599 | 34697 ft | 460 kts | 314° |
| 2026-05-05 10:03 | 71.75195 | -35.23501 | 34697 ft | 460 kts | 314° |
| 2026-05-05 10:04 | 71.79531 | -35.38343 | 34697 ft | 460 kts | 314° |
| 2026-05-05 10:04 | 71.83891 | -35.53375 | 34698 ft | 460 kts | 314° |
| 2026-05-05 10:05 | 71.88235 | -35.68464 | 34690 ft | 460 kts | 314° |
| 2026-05-05 10:05 | 71.92571 | -35.83638 | 34696 ft | 460 kts | 314° |
| 2026-05-05 10:06 | 71.96895 | -35.98877 | 34690 ft | 460 kts | 313° |
| 2026-05-05 10:06 | 72.00482 | -36.11608 | 34691 ft | 461 kts | 313° |
| 2026-05-05 10:07 | 72.05492 | -36.29520 | 34680 ft | 461 kts | 313° |
| 2026-05-05 10:07 | 72.09091 | -36.42486 | 34682 ft | 461 kts | 313° |
| 2026-05-05 10:08 | 72.13355 | -36.57950 | 34676 ft | 461 kts | 313° |
| 2026-05-05 10:08 | 72.17631 | -36.73576 | 34679 ft | 461 kts | 313° |
| 2026-05-05 10:09 | 72.21897 | -36.89286 | 34677 ft | 462 kts | 312° |
| 2026-05-05 10:09 | 72.26154 | -37.05078 | 34670 ft | 462 kts | 312° |
| 2026-05-05 10:10 | 72.30396 | -37.20936 | 34671 ft | 462 kts | 312° |
| 2026-05-05 10:10 | 72.34625 | -37.36867 | 34666 ft | 462 kts | 312° |
| 2026-05-05 10:11 | 72.38812 | -37.52765 | 34660 ft | 461 kts | 312° |
| 2026-05-05 10:11 | 72.43000 | -37.68785 | 34670 ft | 460 kts | 311° |
| 2026-05-05 10:12 | 72.47172 | -37.84870 | 34668 ft | 459 kts | 311° |
| 2026-05-05 10:12 | 72.51319 | -38.00978 | 34667 ft | 458 kts | 311° |
| 2026-05-05 10:13 | 72.55440 | -38.17112 | 34670 ft | 457 kts | 311° |
| 2026-05-05 10:13 | 72.59545 | -38.33307 | 34662 ft | 457 kts | 311° |
| 2026-05-05 10:14 | 72.63608 | -38.49462 | 34677 ft | 457 kts | 311° |
| 2026-05-05 10:14 | 72.67688 | -38.65810 | 34683 ft | 457 kts | 310° |
| 2026-05-05 10:15 | 72.71762 | -38.82262 | 34684 ft | 458 kts | 310° |
| 2026-05-05 10:15 | 72.75827 | -38.98809 | 34684 ft | 459 kts | 310° |
| 2026-05-05 10:16 | 72.79882 | -39.15448 | 34684 ft | 459 kts | 310° |
| 2026-05-05 10:16 | 72.83931 | -39.32193 | 34686 ft | 459 kts | 310° |
| 2026-05-05 10:17 | 72.87962 | -39.48998 | 34687 ft | 459 kts | 309° |
| 2026-05-05 10:17 | 72.91959 | -39.65796 | 34693 ft | 459 kts | 309° |
| 2026-05-05 10:18 | 72.95976 | -39.82798 | 34694 ft | 459 kts | 309° |
| 2026-05-05 10:18 | 72.99892 | -39.99855 | 34696 ft | 459 kts | 306° |
| 2026-05-05 10:19 | 73.03151 | -40.18671 | 34698 ft | 459 kts | 300° |
| 2026-05-05 10:19 | 73.06220 | -40.37916 | 34701 ft | 459 kts | 300° |
| 2026-05-05 10:20 | 73.09285 | -40.57212 | 34703 ft | 460 kts | 300° |
| 2026-05-05 10:20 | 73.12332 | -40.76409 | 34703 ft | 460 kts | 300° |
| 2026-05-05 10:21 | 73.15387 | -40.95763 | 34708 ft | 460 kts | 299° |
| 2026-05-05 10:21 | 73.18427 | -41.15199 | 34708 ft | 460 kts | 299° |
| 2026-05-05 10:22 | 73.21446 | -41.34690 | 34705 ft | 460 kts | 299° |
| 2026-05-05 10:22 | 73.24448 | -41.54263 | 34709 ft | 460 kts | 298° |
| 2026-05-05 10:23 | 73.27430 | -41.73899 | 34708 ft | 460 kts | 298° |
| 2026-05-05 10:23 | 73.30370 | -41.93446 | 34712 ft | 458 kts | 298° |
| 2026-05-05 10:24 | 73.33300 | -42.13111 | 34704 ft | 456 kts | 298° |
| 2026-05-05 10:24 | 73.36192 | -42.32717 | 34711 ft | 454 kts | 298° |
| 2026-05-05 10:25 | 73.39059 | -42.52339 | 34697 ft | 453 kts | 298° |
| 2026-05-05 10:25 | 73.41903 | -42.71996 | 34711 ft | 452 kts | 298° |
| 2026-05-05 10:26 | 73.44725 | -42.91698 | 34716 ft | 452 kts | 297° |
| 2026-05-05 10:26 | 73.47529 | -43.11462 | 34717 ft | 452 kts | 297° |
| 2026-05-05 10:27 | 73.50319 | -43.31328 | 34723 ft | 453 kts | 297° |
| 2026-05-05 10:27 | 73.53073 | -43.51136 | 34722 ft | 454 kts | 297° |
| 2026-05-05 10:28 | 73.55838 | -43.71225 | 34722 ft | 455 kts | 297° |
| 2026-05-05 10:28 | 73.58585 | -43.91381 | 34722 ft | 455 kts | 296° |
| 2026-05-05 10:29 | 73.61296 | -44.11487 | 34722 ft | 455 kts | 296° |
| 2026-05-05 10:29 | 73.64007 | -44.31805 | 34722 ft | 456 kts | 296° |
| 2026-05-05 10:30 | 73.66700 | -44.52193 | 34718 ft | 456 kts | 296° |
| 2026-05-05 10:30 | 73.69370 | -44.72625 | 34719 ft | 455 kts | 296° |
| 2026-05-05 10:31 | 73.72009 | -44.93024 | 34718 ft | 455 kts | 295° |
| 2026-05-05 10:31 | 73.74638 | -45.13577 | 34718 ft | 455 kts | 295° |
| 2026-05-05 10:32 | 73.77250 | -45.34204 | 34721 ft | 455 kts | 295° |
| 2026-05-05 10:32 | 73.79836 | -45.54852 | 34722 ft | 455 kts | 295° |
| 2026-05-05 10:33 | 73.82403 | -45.75578 | 34721 ft | 455 kts | 295° |
| 2026-05-05 10:33 | 73.84934 | -45.96229 | 34719 ft | 455 kts | 295° |
| 2026-05-05 10:34 | 73.87463 | -46.17098 | 34722 ft | 455 kts | 294° |
| 2026-05-05 10:34 | 73.89969 | -46.38007 | 34718 ft | 454 kts | 294° |
| 2026-05-05 10:35 | 73.92454 | -46.58976 | 34718 ft | 454 kts | 294° |
| 2026-05-05 10:35 | 73.94914 | -46.79968 | 34716 ft | 453 kts | 294° |
| 2026-05-05 10:36 | 73.97349 | -47.00983 | 34716 ft | 453 kts | 294° |
| 2026-05-05 10:36 | 73.99751 | -47.21945 | 34716 ft | 453 kts | 293° |
| 2026-05-05 10:37 | 74.02146 | -47.43090 | 34708 ft | 453 kts | 293° |
| 2026-05-05 10:37 | 74.04518 | -47.64273 | 34708 ft | 453 kts | 293° |
| 2026-05-05 10:38 | 74.06873 | -47.85562 | 34710 ft | 453 kts | 292° |
| 2026-05-05 10:38 | 74.09207 | -48.06902 | 34712 ft | 453 kts | 292° |
| 2026-05-05 10:39 | 74.11520 | -48.28307 | 34707 ft | 453 kts | 292° |
| 2026-05-05 10:39 | 74.13815 | -48.49798 | 34706 ft | 454 kts | 292° |
| 2026-05-05 10:40 | 74.16087 | -48.71334 | 34708 ft | 454 kts | 292° |
| 2026-05-05 10:40 | 74.18318 | -48.92743 | 34693 ft | 452 kts | 291° |
| 2026-05-05 10:41 | 74.20533 | -49.14263 | 34689 ft | 449 kts | 291° |
| 2026-05-05 10:41 | 74.22715 | -49.35722 | 34690 ft | 447 kts | 291° |
| 2026-05-05 10:42 | 74.25931 | -49.67838 | 34693 ft | 445 kts | 291° |
| 2026-05-05 10:43 | 74.28044 | -49.89270 | 34692 ft | 444 kts | 291° |
| 2026-05-05 10:43 | 74.30124 | -50.10635 | 34693 ft | 445 kts | 290° |
| 2026-05-05 10:44 | 74.32199 | -50.32217 | 34682 ft | 446 kts | 290° |
| 2026-05-05 10:44 | 74.34257 | -50.53908 | 34674 ft | 447 kts | 290° |
| 2026-05-05 10:45 | 74.36298 | -50.75694 | 34680 ft | 448 kts | 290° |
| 2026-05-05 10:45 | 74.38325 | -50.97617 | 34676 ft | 449 kts | 289° |
| 2026-05-05 10:46 | 74.40329 | -51.19587 | 34668 ft | 449 kts | 289° |
| 2026-05-05 10:46 | 74.42303 | -51.41518 | 34669 ft | 449 kts | 289° |
| 2026-05-05 10:47 | 74.44262 | -51.63589 | 34654 ft | 449 kts | 289° |
| 2026-05-05 10:47 | 74.46197 | -51.85684 | 34644 ft | 448 kts | 289° |
| 2026-05-05 10:48 | 74.48112 | -52.07848 | 34653 ft | 448 kts | 288° |
| 2026-05-05 10:48 | 74.50003 | -52.30051 | 34655 ft | 448 kts | 288° |
| 2026-05-05 10:49 | 74.51871 | -52.52297 | 34655 ft | 448 kts | 288° |
| 2026-05-05 10:49 | 74.53704 | -52.74436 | 34667 ft | 446 kts | 288° |
| 2026-05-05 10:50 | 74.55519 | -52.96681 | 34678 ft | 444 kts | 287° |
| 2026-05-05 10:50 | 74.57300 | -53.18831 | 34678 ft | 442 kts | 287° |
| 2026-05-05 10:51 | 74.59051 | -53.40926 | 34687 ft | 440 kts | 287° |
| 2026-05-05 10:51 | 74.60765 | -53.62875 | 34683 ft | 439 kts | 287° |
| 2026-05-05 10:52 | 74.62468 | -53.85014 | 34666 ft | 440 kts | 287° |
| 2026-05-05 10:52 | 74.64150 | -54.07202 | 34672 ft | 440 kts | 286° |
| 2026-05-05 10:53 | 74.65814 | -54.29503 | 34675 ft | 441 kts | 286° |
| 2026-05-05 10:53 | 74.67448 | -54.51730 | 34653 ft | 442 kts | 285° |
| 2026-05-05 10:54 | 74.69075 | -54.74223 | 34653 ft | 443 kts | 285° |
| 2026-05-05 10:54 | 74.70412 | -54.92972 | 34635 ft | 443 kts | 285° |
| 2026-05-05 10:55 | 74.71999 | -55.15566 | 34604 ft | 444 kts | 285° |
| 2026-05-05 10:55 | 74.73565 | -55.38234 | 34597 ft | 443 kts | 285° |
| 2026-05-05 10:56 | 74.75108 | -55.60946 | 34579 ft | 443 kts | 284° |
| 2026-05-05 10:56 | 74.76616 | -55.83503 | 34598 ft | 443 kts | 284° |
| 2026-05-05 10:57 | 74.78109 | -56.06235 | 34572 ft | 442 kts | 284° |
| 2026-05-05 10:57 | 74.79576 | -56.28954 | 34566 ft | 441 kts | 284° |
| 2026-05-05 10:58 | 74.81016 | -56.51658 | 34562 ft | 441 kts | 283° |
| 2026-05-05 10:58 | 74.82433 | -56.74388 | 34544 ft | 438 kts | 283° |
| 2026-05-05 10:59 | 74.83806 | -56.96829 | 34533 ft | 435 kts | 283° |
| 2026-05-05 10:59 | 74.85158 | -57.19322 | 34546 ft | 433 kts | 283° |
| 2026-05-05 11:00 | 74.86483 | -57.41768 | 34538 ft | 432 kts | 282° |
| 2026-05-05 11:00 | 74.87786 | -57.64241 | 34546 ft | 433 kts | 282° |
| 2026-05-05 11:01 | 74.89066 | -57.86767 | 34554 ft | 434 kts | 282° |
| 2026-05-05 11:01 | 74.90333 | -58.09478 | 34561 ft | 435 kts | 282° |
| 2026-05-05 11:02 | 74.91570 | -58.32098 | 34551 ft | 436 kts | 281° |
| 2026-05-05 11:02 | 74.92795 | -58.54950 | 34551 ft | 437 kts | 281° |
| 2026-05-05 11:03 | 74.93999 | -58.77869 | 34541 ft | 437 kts | 281° |
| 2026-05-05 11:03 | 74.95179 | -59.00812 | 34552 ft | 437 kts | 281° |
| 2026-05-05 11:04 | 74.96337 | -59.23798 | 34558 ft | 437 kts | 281° |
| 2026-05-05 11:04 | 74.97463 | -59.46641 | 34547 ft | 436 kts | 281° |
| 2026-05-05 11:05 | 74.98573 | -59.69613 | 34550 ft | 436 kts | 280° |
| 2026-05-05 11:05 | 74.99660 | -59.92627 | 34562 ft | 435 kts | 280° |
| 2026-05-05 11:06 | 75.00215 | -60.15840 | 34585 ft | 435 kts | 272° |
| 2026-05-05 11:06 | 75.00404 | -60.39224 | 34557 ft | 436 kts | 272° |
| 2026-05-05 11:07 | 75.00587 | -60.62637 | 34523 ft | 436 kts | 272° |
| 2026-05-05 11:07 | 75.00759 | -60.85943 | 34547 ft | 433 kts | 272° |
| 2026-05-05 11:08 | 75.00913 | -61.09175 | 34556 ft | 431 kts | 271° |
| 2026-05-05 11:08 | 75.01042 | -61.32116 | 34561 ft | 429 kts | 271° |
| 2026-05-05 11:09 | 75.01148 | -61.55139 | 34560 ft | 428 kts | 271° |
| 2026-05-05 11:09 | 75.01231 | -61.78125 | 34580 ft | 428 kts | 271° |
| 2026-05-05 11:10 | 75.01291 | -62.01205 | 34572 ft | 430 kts | 270° |
| 2026-05-05 11:10 | 75.01328 | -62.24340 | 34840 ft | 435 kts | 270° |
| 2026-05-05 11:10 | 75.01338 | -62.36065 | 35100 ft | 436 kts | 270° |
| 2026-05-05 11:11 | 75.01341 | -62.47767 | 35329 ft | 437 kts | 270° |
| 2026-05-05 11:11 | 75.01339 | -62.59537 | 35523 ft | 438 kts | 270° |
| 2026-05-05 11:11 | 75.01331 | -62.71344 | 35744 ft | 439 kts | 270° |
| 2026-05-05 11:11 | 75.01317 | -62.83159 | 35956 ft | 440 kts | 270° |
| 2026-05-05 11:12 | 75.01296 | -62.95004 | 36161 ft | 441 kts | 269° |
| 2026-05-05 11:12 | 75.01269 | -63.06888 | 36366 ft | 442 kts | 269° |
| 2026-05-05 11:12 | 75.01236 | -63.18794 | 36476 ft | 444 kts | 269° |
| 2026-05-05 11:13 | 75.01151 | -63.42754 | 36572 ft | 446 kts | 269° |
| 2026-05-05 11:13 | 75.01041 | -63.66697 | 36564 ft | 445 kts | 269° |
| 2026-05-05 11:14 | 75.00907 | -63.90403 | 36562 ft | 443 kts | 268° |
| 2026-05-05 11:14 | 75.00749 | -64.14160 | 36571 ft | 442 kts | 268° |
| 2026-05-05 11:15 | 75.00566 | -64.37867 | 36575 ft | 441 kts | 268° |
| 2026-05-05 11:15 | 75.00359 | -64.61508 | 36574 ft | 441 kts | 268° |
| 2026-05-05 11:16 | 75.00128 | -64.85168 | 36577 ft | 441 kts | 267° |
| 2026-05-05 11:16 | 74.99873 | -65.08689 | 36582 ft | 441 kts | 267° |
| 2026-05-05 11:17 | 74.99592 | -65.32432 | 36579 ft | 442 kts | 267° |
| 2026-05-05 11:17 | 74.99286 | -65.56165 | 36577 ft | 443 kts | 266° |
| 2026-05-05 11:18 | 74.98955 | -65.79918 | 36574 ft | 444 kts | 266° |
| 2026-05-05 11:18 | 74.98599 | -66.03701 | 36578 ft | 444 kts | 266° |
| 2026-05-05 11:19 | 74.98218 | -66.27477 | 36578 ft | 444 kts | 266° |
| 2026-05-05 11:19 | 74.97812 | -66.51268 | 36576 ft | 444 kts | 266° |
| 2026-05-05 11:20 | 74.97384 | -66.74915 | 36590 ft | 445 kts | 265° |
| 2026-05-05 11:20 | 74.96928 | -66.98706 | 36576 ft | 445 kts | 265° |
| 2026-05-05 11:21 | 74.96448 | -67.22458 | 36583 ft | 444 kts | 264° |
| 2026-05-05 11:21 | 74.95943 | -67.46181 | 36582 ft | 444 kts | 264° |
| 2026-05-05 11:22 | 74.95418 | -67.69728 | 36584 ft | 444 kts | 264° |
| 2026-05-05 11:22 | 74.94864 | -67.93417 | 36587 ft | 444 kts | 264° |
| 2026-05-05 11:23 | 74.94287 | -68.17066 | 36588 ft | 444 kts | 264° |
| 2026-05-05 11:23 | 74.93685 | -68.40701 | 36593 ft | 445 kts | 263° |
| 2026-05-05 11:24 | 74.93058 | -68.64343 | 36588 ft | 445 kts | 263° |
| 2026-05-05 11:24 | 74.92404 | -68.88065 | 36585 ft | 445 kts | 263° |
| 2026-05-05 11:25 | 74.91731 | -69.11551 | 36585 ft | 445 kts | 263° |
| 2026-05-05 11:25 | 74.91029 | -69.35199 | 36591 ft | 445 kts | 263° |
| 2026-05-05 11:26 | 74.90301 | -69.58839 | 36590 ft | 445 kts | 262° |
| 2026-05-05 11:26 | 74.89551 | -69.82419 | 36576 ft | 445 kts | 262° |
| 2026-05-05 11:27 | 74.88780 | -70.05862 | 36586 ft | 446 kts | 261° |
| 2026-05-05 11:27 | 74.87979 | -70.29422 | 36588 ft | 446 kts | 261° |
| 2026-05-05 11:28 | 74.87154 | -70.52982 | 36586 ft | 446 kts | 261° |
| 2026-05-05 11:28 | 74.86303 | -70.76540 | 36588 ft | 447 kts | 261° |
| 2026-05-05 11:29 | 74.85429 | -71.00059 | 36589 ft | 447 kts | 261° |
| 2026-05-05 11:29 | 74.84529 | -71.23578 | 36587 ft | 447 kts | 261° |
| 2026-05-05 11:30 | 74.83606 | -71.47054 | 36600 ft | 447 kts | 260° |
| 2026-05-05 11:30 | 74.82657 | -71.70544 | 36592 ft | 448 kts | 260° |
| 2026-05-05 11:31 | 74.81683 | -71.94021 | 36587 ft | 448 kts | 259° |
| 2026-05-05 11:31 | 74.80686 | -72.17471 | 36587 ft | 448 kts | 259° |
| 2026-05-05 11:32 | 74.79674 | -72.40755 | 36581 ft | 448 kts | 259° |
| 2026-05-05 11:32 | 74.78298 | -72.63847 | 36579 ft | 446 kts | 251° |
| 2026-05-05 11:33 | 74.76328 | -72.86238 | 36571 ft | 446 kts | 250° |
| 2026-05-05 11:33 | 74.74352 | -73.08609 | 36592 ft | 447 kts | 250° |
| 2026-05-05 11:34 | 74.72369 | -73.30997 | 36579 ft | 448 kts | 250° |
| 2026-05-05 11:34 | 74.70369 | -73.53372 | 36578 ft | 448 kts | 250° |
| 2026-05-05 11:35 | 74.68345 | -73.75709 | 36576 ft | 449 kts | 250° |
| 2026-05-05 11:35 | 74.66310 | -73.97875 | 36578 ft | 449 kts | 250° |
| 2026-05-05 11:36 | 74.64239 | -74.20122 | 36576 ft | 449 kts | 250° |
| 2026-05-05 11:36 | 74.62145 | -74.42328 | 36573 ft | 449 kts | 249° |
| 2026-05-05 11:37 | 74.60028 | -74.64477 | 36574 ft | 449 kts | 249° |
| 2026-05-05 11:37 | 74.57890 | -74.86558 | 36574 ft | 449 kts | 249° |
| 2026-05-05 11:38 | 74.55736 | -75.08529 | 36547 ft | 448 kts | 249° |
| 2026-05-05 11:38 | 74.53559 | -75.30446 | 36563 ft | 448 kts | 248° |
| 2026-05-05 11:39 | 74.51359 | -75.52316 | 36570 ft | 449 kts | 248° |
| 2026-05-05 11:39 | 74.49147 | -75.74039 | 36569 ft | 450 kts | 248° |
| 2026-05-05 11:40 | 74.46899 | -75.95845 | 36569 ft | 450 kts | 248° |
| 2026-05-05 11:40 | 74.44625 | -76.17628 | 36582 ft | 451 kts | 248° |
| 2026-05-05 11:41 | 74.42329 | -76.39362 | 36568 ft | 451 kts | 247° |
| 2026-05-05 11:41 | 74.40388 | -76.57529 | 36563 ft | 451 kts | 247° |
| 2026-05-05 11:42 | 74.38051 | -76.79156 | 36555 ft | 451 kts | 247° |
| 2026-05-05 11:42 | 74.35709 | -77.00586 | 36555 ft | 451 kts | 246° |
| 2026-05-05 11:43 | 74.33331 | -77.22079 | 36555 ft | 451 kts | 246° |
| 2026-05-05 11:43 | 74.30938 | -77.43465 | 36549 ft | 450 kts | 246° |
| 2026-05-05 11:44 | 74.28522 | -77.64798 | 36538 ft | 450 kts | 246° |
| 2026-05-05 11:44 | 74.26086 | -77.86069 | 36537 ft | 450 kts | 246° |
| 2026-05-05 11:45 | 74.23633 | -78.07242 | 36537 ft | 450 kts | 245° |
| 2026-05-05 11:45 | 74.21155 | -78.28395 | 36532 ft | 450 kts | 245° |
| 2026-05-05 11:46 | 74.18661 | -78.49446 | 36517 ft | 450 kts | 245° |
| 2026-05-05 11:46 | 74.16143 | -78.70453 | 36513 ft | 450 kts | 245° |
| 2026-05-05 11:47 | 74.13605 | -78.91405 | 36508 ft | 450 kts | 245° |
| 2026-05-05 11:47 | 74.11049 | -79.12272 | 36508 ft | 450 kts | 245° |
| 2026-05-05 11:48 | 74.07188 | -79.43373 | 36487 ft | 451 kts | 244° |
| 2026-05-05 11:48 | 74.04576 | -79.64140 | 36498 ft | 452 kts | 244° |
| 2026-05-05 11:49 | 74.01944 | -79.84869 | 36497 ft | 452 kts | 244° |
| 2026-05-05 11:49 | 73.99167 | -80.05374 | 36491 ft | 452 kts | 238° |
| 2026-05-05 11:50 | 73.95871 | -80.24767 | 36475 ft | 452 kts | 237° |
| 2026-05-05 11:50 | 73.92578 | -80.43996 | 36477 ft | 452 kts | 237° |
| 2026-05-05 11:51 | 73.89269 | -80.63274 | 36479 ft | 453 kts | 237° |
| 2026-05-05 11:51 | 73.85945 | -80.82527 | 36478 ft | 453 kts | 237° |
| 2026-05-05 11:52 | 73.82606 | -81.01697 | 36478 ft | 453 kts | 237° |
| 2026-05-05 11:52 | 73.79248 | -81.20801 | 36466 ft | 452 kts | 237° |
| 2026-05-05 11:53 | 73.75875 | -81.39811 | 36467 ft | 452 kts | 236° |
| 2026-05-05 11:53 | 73.72481 | -81.58765 | 36472 ft | 453 kts | 236° |
| 2026-05-05 11:54 | 73.69073 | -81.77629 | 36466 ft | 453 kts | 236° |
| 2026-05-05 11:54 | 73.65660 | -81.96350 | 36468 ft | 454 kts | 236° |
| 2026-05-05 11:55 | 73.62204 | -82.15142 | 36460 ft | 454 kts | 236° |
| 2026-05-05 11:55 | 73.58730 | -82.33863 | 36464 ft | 455 kts | 236° |
| 2026-05-05 11:56 | 73.55262 | -82.52382 | 36457 ft | 455 kts | 235° |
| 2026-05-05 11:56 | 73.51755 | -82.70952 | 36432 ft | 455 kts | 235° |
| 2026-05-05 11:57 | 73.48225 | -82.89478 | 36432 ft | 455 kts | 235° |
| 2026-05-05 11:57 | 73.44681 | -83.07913 | 36440 ft | 455 kts | 234° |
| 2026-05-05 11:58 | 73.41123 | -83.26267 | 36442 ft | 456 kts | 234° |
| 2026-05-05 11:58 | 73.37538 | -83.44593 | 36434 ft | 456 kts | 234° |
| 2026-05-05 11:59 | 73.33965 | -83.62709 | 36461 ft | 456 kts | 234° |
| 2026-05-05 11:59 | 73.30343 | -83.80907 | 36443 ft | 457 kts | 234° |
| 2026-05-05 12:00 | 73.26701 | -83.99050 | 36436 ft | 457 kts | 234° |
| 2026-05-05 12:00 | 73.23075 | -84.16965 | 36435 ft | 457 kts | 234° |
| 2026-05-05 12:01 | 73.19414 | -84.34902 | 36430 ft | 457 kts | 233° |
| 2026-05-05 12:01 | 73.15730 | -84.52795 | 36431 ft | 457 kts | 233° |
| 2026-05-05 12:02 | 73.12027 | -84.70627 | 36427 ft | 458 kts | 233° |
| 2026-05-05 12:02 | 73.08302 | -84.88418 | 36430 ft | 458 kts | 233° |
| 2026-05-05 12:03 | 73.04561 | -85.06138 | 36446 ft | 458 kts | 233° |
| 2026-05-05 12:03 | 73.00826 | -85.23681 | 36423 ft | 459 kts | 233° |
| 2026-05-05 12:04 | 72.97042 | -85.41306 | 36420 ft | 459 kts | 232° |
| 2026-05-05 12:04 | 72.93244 | -85.58851 | 36425 ft | 460 kts | 232° |
| 2026-05-05 12:05 | 72.89453 | -85.76217 | 36406 ft | 460 kts | 232° |
| 2026-05-05 12:05 | 72.85625 | -85.93617 | 36415 ft | 459 kts | 232° |
| 2026-05-05 12:06 | 72.81785 | -86.10921 | 36427 ft | 460 kts | 232° |
| 2026-05-05 12:06 | 72.77927 | -86.28167 | 36427 ft | 460 kts | 232° |
| 2026-05-05 12:07 | 72.74051 | -86.45355 | 36427 ft | 461 kts | 232° |
| 2026-05-05 12:07 | 72.70156 | -86.62486 | 36421 ft | 461 kts | 231° |
| 2026-05-05 12:08 | 72.66238 | -86.79576 | 36422 ft | 462 kts | 231° |
| 2026-05-05 12:08 | 72.62332 | -86.96483 | 36416 ft | 462 kts | 231° |
| 2026-05-05 12:09 | 72.58380 | -87.13450 | 36413 ft | 462 kts | 231° |
| 2026-05-05 12:09 | 72.54418 | -87.30324 | 36410 ft | 462 kts | 231° |
| 2026-05-05 12:10 | 72.50434 | -87.47156 | 36412 ft | 462 kts | 231° |
| 2026-05-05 12:10 | 72.46441 | -87.63893 | 36422 ft | 463 kts | 231° |
| 2026-05-05 12:11 | 72.42423 | -87.80602 | 36414 ft | 464 kts | 230° |
| 2026-05-05 12:11 | 72.38386 | -87.97260 | 36414 ft | 464 kts | 230° |
| 2026-05-05 12:12 | 72.34353 | -88.13769 | 36412 ft | 464 kts | 230° |
| 2026-05-05 12:12 | 72.30279 | -88.30318 | 36409 ft | 465 kts | 230° |
| 2026-05-05 12:13 | 72.26193 | -88.46786 | 36409 ft | 465 kts | 230° |
| 2026-05-05 12:13 | 72.22090 | -88.63190 | 36400 ft | 465 kts | 230° |
| 2026-05-05 12:14 | 72.17979 | -88.79498 | 36402 ft | 465 kts | 230° |
| 2026-05-05 12:14 | 72.13879 | -88.95641 | 36402 ft | 465 kts | 229° |
| 2026-05-05 12:15 | 72.09735 | -89.11831 | 36397 ft | 465 kts | 229° |
| 2026-05-05 12:15 | 72.05577 | -89.27953 | 36396 ft | 465 kts | 229° |
| 2026-05-05 12:16 | 72.01406 | -89.43998 | 36396 ft | 465 kts | 229° |
| 2026-05-05 12:16 | 71.97223 | -89.59969 | 36394 ft | 465 kts | 229° |
| 2026-05-05 12:17 | 71.93023 | -89.75882 | 36390 ft | 465 kts | 229° |
| 2026-05-05 12:17 | 71.88841 | -89.91608 | 36383 ft | 465 kts | 228° |
| 2026-05-05 12:18 | 71.84609 | -90.07405 | 36390 ft | 466 kts | 229° |
| 2026-05-05 12:18 | 71.80364 | -90.23128 | 36390 ft | 467 kts | 228° |
| 2026-05-05 12:19 | 71.76097 | -90.38817 | 36386 ft | 467 kts | 228° |
| 2026-05-05 12:19 | 71.71839 | -90.54356 | 36386 ft | 468 kts | 228° |
| 2026-05-05 12:20 | 71.67535 | -90.69943 | 36386 ft | 468 kts | 228° |
| 2026-05-05 12:20 | 71.63219 | -90.85461 | 36386 ft | 469 kts | 228° |
| 2026-05-05 12:21 | 71.58913 | -91.00826 | 36385 ft | 469 kts | 227° |
| 2026-05-05 12:21 | 71.54574 | -91.16195 | 36386 ft | 469 kts | 227° |
| 2026-05-05 12:22 | 71.50216 | -91.31519 | 36385 ft | 469 kts | 227° |
| 2026-05-05 12:22 | 71.45841 | -91.46791 | 36389 ft | 470 kts | 227° |
| 2026-05-05 12:23 | 71.41445 | -91.62019 | 36389 ft | 470 kts | 227° |
| 2026-05-05 12:23 | 71.37034 | -91.77191 | 36388 ft | 471 kts | 227° |
| 2026-05-05 12:24 | 71.32639 | -91.92198 | 36394 ft | 471 kts | 227° |
| 2026-05-05 12:24 | 71.28200 | -92.07245 | 36395 ft | 471 kts | 227° |
| 2026-05-05 12:25 | 71.23750 | -92.22218 | 36395 ft | 471 kts | 227° |
| 2026-05-05 12:25 | 71.19292 | -92.37114 | 36403 ft | 471 kts | 227° |
| 2026-05-05 12:26 | 71.14841 | -92.51878 | 36399 ft | 471 kts | 226° |
| 2026-05-05 12:26 | 71.10358 | -92.66641 | 36399 ft | 471 kts | 226° |
| 2026-05-05 12:27 | 71.05855 | -92.81365 | 36407 ft | 471 kts | 226° |
| 2026-05-05 12:27 | 71.01339 | -92.96026 | 36407 ft | 471 kts | 226° |
| 2026-05-05 12:28 | 70.96807 | -93.10634 | 36415 ft | 471 kts | 226° |
| 2026-05-05 12:28 | 70.92299 | -93.25062 | 36415 ft | 471 kts | 226° |
| 2026-05-05 12:29 | 70.87751 | -93.39515 | 36419 ft | 472 kts | 226° |
| 2026-05-05 12:29 | 70.83182 | -93.53933 | 36410 ft | 473 kts | 226° |
| 2026-05-05 12:30 | 70.79367 | -93.65896 | 36421 ft | 474 kts | 226° |
| 2026-05-05 12:30 | 70.74766 | -93.80229 | 36421 ft | 475 kts | 225° |
| 2026-05-05 12:31 | 70.70144 | -93.94528 | 36412 ft | 475 kts | 225° |
| 2026-05-05 12:31 | 70.65505 | -94.08780 | 36410 ft | 476 kts | 225° |
| 2026-05-05 12:32 | 70.60873 | -94.22909 | 36410 ft | 476 kts | 225° |
| 2026-05-05 12:32 | 70.57685 | -94.32578 | 36392 ft | 470 kts | 225° |
| 2026-05-05 12:33 | 70.53095 | -94.46416 | 36411 ft | 472 kts | 225° |
| 2026-05-05 12:33 | 70.48406 | -94.60460 | 36414 ft | 480 kts | 225° |
| 2026-05-05 12:34 | 70.43658 | -94.74578 | 36401 ft | 480 kts | 225° |
| 2026-05-05 12:34 | 70.38916 | -94.88582 | 36392 ft | 479 kts | 225° |
| 2026-05-05 12:35 | 70.34211 | -95.02383 | 36392 ft | 477 kts | 225° |
| 2026-05-05 12:35 | 70.29491 | -95.16133 | 36389 ft | 476 kts | 225° |
| 2026-05-05 12:36 | 70.24764 | -95.29809 | 36385 ft | 474 kts | 224° |
| 2026-05-05 12:36 | 70.20033 | -95.43407 | 36382 ft | 475 kts | 225° |
| 2026-05-05 12:37 | 70.15290 | -95.56947 | 36391 ft | 475 kts | 224° |
| 2026-05-05 12:37 | 70.10515 | -95.70486 | 36382 ft | 477 kts | 224° |
| 2026-05-05 12:38 | 70.05746 | -95.83922 | 36385 ft | 478 kts | 224° |
| 2026-05-05 12:38 | 70.00928 | -95.97413 | 36380 ft | 479 kts | 224° |
| 2026-05-05 12:39 | 69.96038 | -96.10670 | 36378 ft | 480 kts | 223° |
| 2026-05-05 12:39 | 69.91047 | -96.23648 | 36377 ft | 480 kts | 222° |
| 2026-05-05 12:40 | 69.86078 | -96.36477 | 36370 ft | 481 kts | 222° |
| 2026-05-05 12:40 | 69.81080 | -96.49368 | 36374 ft | 481 kts | 222° |
| 2026-05-05 12:41 | 69.76076 | -96.62228 | 36372 ft | 481 kts | 222° |
| 2026-05-05 12:41 | 69.71058 | -96.75048 | 36377 ft | 481 kts | 222° |
| 2026-05-05 12:42 | 69.66033 | -96.87797 | 36376 ft | 482 kts | 222° |
| 2026-05-05 12:42 | 69.60999 | -97.00485 | 36375 ft | 482 kts | 221° |
| 2026-05-05 12:43 | 69.55949 | -97.13129 | 36384 ft | 482 kts | 221° |
| 2026-05-05 12:43 | 69.50923 | -97.25630 | 36372 ft | 482 kts | 222° |
| 2026-05-05 12:44 | 69.45849 | -97.38169 | 36385 ft | 483 kts | 221° |
| 2026-05-05 12:44 | 69.40762 | -97.50658 | 36383 ft | 483 kts | 221° |
| 2026-05-05 12:45 | 69.35663 | -97.63098 | 36381 ft | 484 kts | 221° |
| 2026-05-05 12:45 | 69.30545 | -97.75503 | 36386 ft | 484 kts | 221° |
| 2026-05-05 12:46 | 69.25419 | -97.87847 | 36387 ft | 484 kts | 221° |
| 2026-05-05 12:46 | 69.20285 | -98.00130 | 36380 ft | 484 kts | 221° |
| 2026-05-05 12:47 | 69.15131 | -98.12384 | 36375 ft | 485 kts | 221° |
| 2026-05-05 12:47 | 69.10008 | -98.24483 | 36380 ft | 485 kts | 221° |
| 2026-05-05 12:48 | 69.04834 | -98.36628 | 36381 ft | 486 kts | 221° |
| 2026-05-05 12:48 | 68.99648 | -98.48724 | 36383 ft | 486 kts | 221° |
| 2026-05-05 12:49 | 68.94429 | -98.60820 | 36380 ft | 486 kts | 220° |
| 2026-05-05 12:49 | 68.89245 | -98.72758 | 36379 ft | 487 kts | 220° |
| 2026-05-05 12:50 | 68.84024 | -98.84704 | 36381 ft | 487 kts | 220° |
| 2026-05-05 12:50 | 68.78790 | -98.96607 | 36383 ft | 487 kts | 220° |
| 2026-05-05 12:51 | 68.73549 | -99.08449 | 36383 ft | 487 kts | 220° |
| 2026-05-05 12:51 | 68.68301 | -99.20234 | 36383 ft | 487 kts | 220° |
| 2026-05-05 12:52 | 68.63050 | -99.31950 | 36385 ft | 486 kts | 220° |
| 2026-05-05 12:52 | 68.57814 | -99.43564 | 36374 ft | 486 kts | 220° |
| 2026-05-05 12:53 | 68.52541 | -99.55184 | 36378 ft | 486 kts | 220° |
| 2026-05-05 12:53 | 68.47264 | -99.66745 | 36378 ft | 486 kts | 219° |
| 2026-05-05 12:54 | 68.39325 | -99.83999 | 36374 ft | 487 kts | 220° |
| 2026-05-05 12:55 | 68.34019 | -99.95444 | 36382 ft | 487 kts | 220° |
| 2026-05-05 12:55 | 68.28702 | -100.06843 | 36381 ft | 488 kts | 219° |
| 2026-05-05 12:56 | 68.23403 | -100.18132 | 36381 ft | 488 kts | 219° |
| 2026-05-05 12:56 | 68.18062 | -100.29444 | 36375 ft | 489 kts | 219° |
| 2026-05-05 12:57 | 68.12703 | -100.40722 | 36382 ft | 489 kts | 219° |
| 2026-05-05 12:57 | 68.07337 | -100.51949 | 36376 ft | 489 kts | 219° |
| 2026-05-05 12:58 | 68.01961 | -100.63127 | 36383 ft | 489 kts | 219° |
| 2026-05-05 12:58 | 67.96572 | -100.74264 | 36387 ft | 490 kts | 219° |
| 2026-05-05 12:59 | 67.91210 | -100.85281 | 36399 ft | 489 kts | 219° |
| 2026-05-05 12:59 | 67.85810 | -100.96308 | 36390 ft | 490 kts | 219° |
| 2026-05-05 13:00 | 67.77701 | -101.12746 | 36383 ft | 490 kts | 219° |
| 2026-05-05 13:01 | 67.66855 | -101.34499 | 36395 ft | 490 kts | 219° |
| 2026-05-05 13:01 | 67.61413 | -101.45318 | 36390 ft | 490 kts | 218° |
| 2026-05-05 13:02 | 67.55973 | -101.56070 | 36390 ft | 490 kts | 218° |
| 2026-05-05 13:02 | 67.50566 | -101.66693 | 36397 ft | 489 kts | 218° |
| 2026-05-05 13:03 | 67.45112 | -101.77344 | 36393 ft | 489 kts | 218° |
| 2026-05-05 13:03 | 67.39659 | -101.87934 | 36398 ft | 489 kts | 218° |
| 2026-05-05 13:04 | 67.34195 | -101.98479 | 36383 ft | 489 kts | 218° |
| 2026-05-05 13:04 | 67.28729 | -102.08971 | 36392 ft | 489 kts | 218° |
| 2026-05-05 13:05 | 67.23261 | -102.19405 | 36399 ft | 488 kts | 218° |
| 2026-05-05 13:05 | 67.17784 | -102.29796 | 36399 ft | 488 kts | 218° |
| 2026-05-05 13:06 | 67.12399 | -102.39954 | 36399 ft | 488 kts | 218° |
| 2026-05-05 13:06 | 67.06852 | -102.50356 | 36400 ft | 488 kts | 218° |
| 2026-05-05 13:07 | 67.01353 | -102.60611 | 36396 ft | 489 kts | 218° |
| 2026-05-05 13:07 | 66.95844 | -102.70826 | 36382 ft | 489 kts | 218° |
| 2026-05-05 13:08 | 66.90327 | -102.80996 | 36399 ft | 489 kts | 218° |
| 2026-05-05 13:08 | 66.84844 | -102.91048 | 36403 ft | 489 kts | 217° |
| 2026-05-05 13:09 | 66.79317 | -103.01124 | 36398 ft | 489 kts | 217° |
| 2026-05-05 13:09 | 66.73780 | -103.11159 | 36399 ft | 489 kts | 217° |
| 2026-05-05 13:10 | 66.68238 | -103.21147 | 36396 ft | 489 kts | 217° |
| 2026-05-05 13:10 | 66.62689 | -103.31092 | 36394 ft | 489 kts | 217° |
| 2026-05-05 13:11 | 66.57135 | -103.40991 | 36391 ft | 489 kts | 217° |
| 2026-05-05 13:11 | 66.51575 | -103.50844 | 36403 ft | 489 kts | 217° |
| 2026-05-05 13:12 | 66.46002 | -103.60666 | 36399 ft | 490 kts | 217° |
| 2026-05-05 13:12 | 66.40419 | -103.70449 | 36397 ft | 490 kts | 217° |
| 2026-05-05 13:13 | 66.34828 | -103.80194 | 36401 ft | 490 kts | 217° |
| 2026-05-05 13:13 | 66.29234 | -103.89889 | 36401 ft | 490 kts | 217° |
| 2026-05-05 13:14 | 66.23633 | -103.99544 | 36399 ft | 490 kts | 217° |
| 2026-05-05 13:14 | 66.18061 | -104.09095 | 36396 ft | 490 kts | 217° |
| 2026-05-05 13:15 | 66.12450 | -104.18662 | 36400 ft | 490 kts | 217° |
| 2026-05-05 13:15 | 66.06829 | -104.28192 | 36398 ft | 490 kts | 217° |
| 2026-05-05 13:16 | 66.01205 | -104.37677 | 36402 ft | 490 kts | 216° |
| 2026-05-05 13:16 | 65.95689 | -104.46929 | 36402 ft | 490 kts | 216° |
| 2026-05-05 13:17 | 65.90033 | -104.56364 | 36402 ft | 491 kts | 216° |
| 2026-05-05 13:17 | 65.84380 | -104.65744 | 36383 ft | 491 kts | 216° |
| 2026-05-05 13:18 | 65.78723 | -104.75080 | 36393 ft | 491 kts | 216° |
| 2026-05-05 13:18 | 65.73088 | -104.84328 | 36400 ft | 491 kts | 216° |
| 2026-05-05 13:19 | 65.67421 | -104.93582 | 36402 ft | 491 kts | 216° |
| 2026-05-05 13:19 | 65.62662 | -105.01314 | 36398 ft | 491 kts | 216° |
| 2026-05-05 13:20 | 65.57003 | -105.10462 | 36399 ft | 492 kts | 216° |
| 2026-05-05 13:20 | 65.51314 | -105.19610 | 36399 ft | 492 kts | 216° |
| 2026-05-05 13:21 | 65.45610 | -105.28734 | 36389 ft | 492 kts | 216° |
| 2026-05-05 13:21 | 65.39903 | -105.37814 | 36403 ft | 492 kts | 216° |
| 2026-05-05 13:22 | 65.34185 | -105.46864 | 36401 ft | 492 kts | 216° |
| 2026-05-05 13:22 | 65.28460 | -105.55879 | 36395 ft | 493 kts | 216° |
| 2026-05-05 13:23 | 65.22721 | -105.64865 | 36392 ft | 493 kts | 216° |
| 2026-05-05 13:23 | 65.16975 | -105.73817 | 36404 ft | 493 kts | 216° |
| 2026-05-05 13:24 | 65.11232 | -105.82719 | 36394 ft | 493 kts | 216° |
| 2026-05-05 13:24 | 65.05478 | -105.91595 | 36395 ft | 493 kts | 215° |
| 2026-05-05 13:25 | 64.99744 | -106.00527 | 36397 ft | 492 kts | 218° |
| 2026-05-05 13:25 | 64.94505 | -106.10680 | 36409 ft | 490 kts | 223° |
| 2026-05-05 13:26 | 64.89300 | -106.21085 | 36403 ft | 491 kts | 223° |
| 2026-05-05 13:26 | 64.84070 | -106.31420 | 36407 ft | 491 kts | 223° |
| 2026-05-05 13:27 | 64.78809 | -106.41705 | 36407 ft | 491 kts | 222° |
| 2026-05-05 13:27 | 64.73546 | -106.51924 | 36395 ft | 491 kts | 223° |
| 2026-05-05 13:28 | 64.68307 | -106.62046 | 36402 ft | 491 kts | 222° |
| 2026-05-05 13:28 | 64.63021 | -106.72209 | 36407 ft | 492 kts | 222° |
| 2026-05-05 13:29 | 64.57725 | -106.82339 | 36405 ft | 492 kts | 222° |
| 2026-05-05 13:29 | 64.52421 | -106.92432 | 36402 ft | 493 kts | 222° |
| 2026-05-05 13:30 | 64.47102 | -107.02502 | 36403 ft | 493 kts | 222° |
| 2026-05-05 13:30 | 64.41781 | -107.12522 | 36396 ft | 493 kts | 222° |
| 2026-05-05 13:31 | 64.36448 | -107.22514 | 36404 ft | 493 kts | 222° |
| 2026-05-05 13:31 | 64.31129 | -107.32429 | 36403 ft | 494 kts | 222° |
| 2026-05-05 13:32 | 64.25770 | -107.42367 | 36399 ft | 494 kts | 222° |
| 2026-05-05 13:32 | 64.20406 | -107.52262 | 36400 ft | 494 kts | 221° |
| 2026-05-05 13:33 | 64.15036 | -107.62119 | 36393 ft | 495 kts | 221° |
| 2026-05-05 13:33 | 64.09684 | -107.71892 | 36398 ft | 495 kts | 222° |
| 2026-05-05 13:34 | 64.04290 | -107.81693 | 36403 ft | 495 kts | 221° |
| 2026-05-05 13:34 | 63.98881 | -107.91470 | 36403 ft | 496 kts | 221° |
| 2026-05-05 13:35 | 63.93463 | -108.01215 | 36399 ft | 496 kts | 221° |
| 2026-05-05 13:35 | 63.88026 | -108.10944 | 36398 ft | 497 kts | 221° |
| 2026-05-05 13:36 | 63.82626 | -108.20557 | 36379 ft | 497 kts | 221° |
| 2026-05-05 13:36 | 63.77184 | -108.30198 | 36393 ft | 497 kts | 221° |
| 2026-05-05 13:37 | 63.71734 | -108.39804 | 36398 ft | 497 kts | 221° |
| 2026-05-05 13:37 | 63.66269 | -108.49389 | 36395 ft | 498 kts | 221° |
| 2026-05-05 13:38 | 63.60792 | -108.58946 | 36393 ft | 498 kts | 221° |
| 2026-05-05 13:38 | 63.55305 | -108.68473 | 36392 ft | 499 kts | 221° |
| 2026-05-05 13:39 | 63.49792 | -108.77996 | 36382 ft | 499 kts | 221° |
| 2026-05-05 13:39 | 63.44286 | -108.87460 | 36392 ft | 499 kts | 221° |
| 2026-05-05 13:40 | 63.38810 | -108.96827 | 36400 ft | 500 kts | 221° |
| 2026-05-05 13:40 | 63.33277 | -109.06244 | 36402 ft | 500 kts | 221° |
| 2026-05-05 13:41 | 63.27738 | -109.15625 | 36397 ft | 501 kts | 221° |
| 2026-05-05 13:41 | 63.22178 | -109.24994 | 36396 ft | 501 kts | 221° |
| 2026-05-05 13:42 | 63.16618 | -109.34316 | 36391 ft | 501 kts | 221° |
| 2026-05-05 13:42 | 63.11048 | -109.43612 | 36390 ft | 501 kts | 221° |
| 2026-05-05 13:43 | 63.05502 | -109.52820 | 36391 ft | 502 kts | 221° |
| 2026-05-05 13:43 | 62.99907 | -109.62065 | 36382 ft | 503 kts | 221° |
| 2026-05-05 13:44 | 62.94304 | -109.71279 | 36380 ft | 503 kts | 221° |
| 2026-05-05 13:44 | 62.88685 | -109.80471 | 36337 ft | 503 kts | 221° |
| 2026-05-05 13:45 | 62.83067 | -109.89617 | 36372 ft | 504 kts | 221° |
| 2026-05-05 13:45 | 62.77422 | -109.98765 | 36376 ft | 505 kts | 221° |
| 2026-05-05 13:46 | 62.71765 | -110.07887 | 36380 ft | 506 kts | 221° |
| 2026-05-05 13:46 | 62.66123 | -110.16940 | 36374 ft | 507 kts | 221° |
| 2026-05-05 13:47 | 62.60440 | -110.26015 | 36367 ft | 507 kts | 221° |
| 2026-05-05 13:47 | 62.54747 | -110.35060 | 36356 ft | 507 kts | 221° |
| 2026-05-05 13:48 | 62.49037 | -110.44090 | 36367 ft | 508 kts | 221° |
| 2026-05-05 13:48 | 62.43320 | -110.53086 | 36380 ft | 508 kts | 221° |
| 2026-05-05 13:49 | 62.37584 | -110.62070 | 36357 ft | 509 kts | 221° |
| 2026-05-05 13:49 | 62.31876 | -110.70967 | 36354 ft | 510 kts | 221° |
| 2026-05-05 13:50 | 62.26120 | -110.79894 | 36315 ft | 510 kts | 221° |
| 2026-05-05 13:50 | 62.20354 | -110.88793 | 36359 ft | 510 kts | 221° |
| 2026-05-05 13:51 | 62.14593 | -110.97646 | 36363 ft | 510 kts | 221° |
| 2026-05-05 13:51 | 62.08809 | -111.06489 | 36358 ft | 511 kts | 221° |
| 2026-05-05 13:52 | 62.03019 | -111.15299 | 36359 ft | 511 kts | 221° |
| 2026-05-05 13:52 | 61.97219 | -111.24082 | 36360 ft | 512 kts | 221° |
| 2026-05-05 13:53 | 61.91442 | -111.32789 | 36356 ft | 512 kts | 221° |
| 2026-05-05 13:53 | 61.85627 | -111.41510 | 36348 ft | 512 kts | 221° |
| 2026-05-05 13:54 | 61.79803 | -111.50206 | 36353 ft | 512 kts | 221° |
| 2026-05-05 13:54 | 61.73980 | -111.58858 | 36356 ft | 512 kts | 221° |
| 2026-05-05 13:55 | 61.68150 | -111.67482 | 36351 ft | 512 kts | 220° |
| 2026-05-05 13:55 | 61.62310 | -111.76078 | 36300 ft | 512 kts | 221° |
| 2026-05-05 13:56 | 61.56463 | -111.84641 | 36339 ft | 513 kts | 221° |
| 2026-05-05 13:56 | 61.50601 | -111.93192 | 36348 ft | 514 kts | 221° |
| 2026-05-05 13:57 | 61.44711 | -112.01742 | 36348 ft | 515 kts | 221° |
| 2026-05-05 13:57 | 61.38838 | -112.10227 | 36346 ft | 516 kts | 221° |
| 2026-05-05 13:58 | 61.32913 | -112.18745 | 36339 ft | 517 kts | 221° |
| 2026-05-05 13:58 | 61.26992 | -112.27217 | 36341 ft | 517 kts | 221° |
| 2026-05-05 13:59 | 61.18075 | -112.39906 | 36336 ft | 519 kts | 221° |
| 2026-05-05 14:00 | 61.10126 | -112.51143 | 36334 ft | 519 kts | 221° |
| 2026-05-05 14:00 | 61.03174 | -112.60911 | 36338 ft | 520 kts | 221° |
| 2026-05-05 14:01 | 60.97188 | -112.69279 | 36322 ft | 518 kts | 221° |
| 2026-05-05 14:01 | 60.91213 | -112.77594 | 36327 ft | 518 kts | 221° |
| 2026-05-05 14:02 | 60.85254 | -112.85852 | 36331 ft | 517 kts | 221° |
| 2026-05-05 14:02 | 60.79276 | -112.94098 | 36326 ft | 518 kts | 221° |
| 2026-05-05 14:03 | 60.73287 | -113.02320 | 36328 ft | 518 kts | 221° |
| 2026-05-05 14:03 | 60.67297 | -113.10506 | 36283 ft | 518 kts | 221° |
| 2026-05-05 14:04 | 60.61315 | -113.18642 | 36313 ft | 516 kts | 221° |
| 2026-05-05 14:04 | 60.55375 | -113.26686 | 36319 ft | 516 kts | 221° |
| 2026-05-05 14:05 | 60.49383 | -113.34767 | 36324 ft | 516 kts | 221° |
| 2026-05-05 14:05 | 60.43385 | -113.42817 | 36327 ft | 517 kts | 221° |
| 2026-05-05 14:06 | 60.38393 | -113.49490 | 36319 ft | 517 kts | 220° |
| 2026-05-05 14:06 | 60.32394 | -113.57473 | 36315 ft | 516 kts | 220° |
| 2026-05-05 14:07 | 60.26396 | -113.65422 | 36314 ft | 515 kts | 220° |
| 2026-05-05 14:07 | 60.20400 | -113.73335 | 36317 ft | 515 kts | 220° |
| 2026-05-05 14:08 | 60.14434 | -113.81173 | 36316 ft | 515 kts | 220° |
| 2026-05-05 14:08 | 60.08431 | -113.89027 | 36308 ft | 515 kts | 220° |
| 2026-05-05 14:09 | 60.02429 | -113.96844 | 36308 ft | 514 kts | 220° |
| 2026-05-05 14:09 | 59.96123 | -114.03844 | 36305 ft | 523 kts | 211° |
| 2026-05-05 14:10 | 59.89493 | -114.09864 | 36301 ft | 524 kts | 211° |
| 2026-05-05 14:10 | 59.82857 | -114.15869 | 36295 ft | 524 kts | 211° |
| 2026-05-05 14:11 | 59.76271 | -114.21882 | 36293 ft | 524 kts | 211° |
| 2026-05-05 14:11 | 59.69649 | -114.27941 | 36244 ft | 524 kts | 211° |
| 2026-05-05 14:12 | 59.63032 | -114.33973 | 36285 ft | 523 kts | 211° |
| 2026-05-05 14:12 | 59.56403 | -114.39988 | 36281 ft | 524 kts | 211° |
| 2026-05-05 14:13 | 59.49766 | -114.45981 | 36284 ft | 525 kts | 211° |
| 2026-05-05 14:13 | 59.43117 | -114.51955 | 36279 ft | 525 kts | 211° |
| 2026-05-05 14:14 | 59.36464 | -114.57906 | 36273 ft | 525 kts | 211° |
| 2026-05-05 14:14 | 59.29819 | -114.63823 | 36277 ft | 524 kts | 211° |
| 2026-05-05 14:15 | 59.23219 | -114.69680 | 36277 ft | 523 kts | 211° |
| 2026-05-05 14:15 | 59.16587 | -114.75538 | 36280 ft | 523 kts | 211° |
| 2026-05-05 14:16 | 59.09956 | -114.81371 | 36272 ft | 522 kts | 211° |
| 2026-05-05 14:16 | 59.03327 | -114.87176 | 36285 ft | 522 kts | 211° |
| 2026-05-05 14:17 | 58.96701 | -114.92955 | 36240 ft | 521 kts | 211° |
| 2026-05-05 14:17 | 58.90081 | -114.98702 | 36289 ft | 520 kts | 211° |
| 2026-05-05 14:18 | 58.83520 | -115.04378 | 36276 ft | 520 kts | 211° |
| 2026-05-05 14:18 | 58.76912 | -115.10070 | 36275 ft | 520 kts | 211° |
| 2026-05-05 14:19 | 58.70284 | -115.15755 | 36293 ft | 521 kts | 211° |
| 2026-05-05 14:19 | 58.63647 | -115.21423 | 36275 ft | 521 kts | 211° |
| 2026-05-05 14:20 | 58.57018 | -115.27061 | 36297 ft | 521 kts | 211° |
| 2026-05-05 14:20 | 58.50375 | -115.32688 | 36294 ft | 523 kts | 211° |
| 2026-05-05 14:21 | 58.43750 | -115.38277 | 36287 ft | 524 kts | 211° |
| 2026-05-05 14:21 | 58.37062 | -115.43894 | 36294 ft | 525 kts | 211° |
| 2026-05-05 14:22 | 58.30353 | -115.49505 | 36293 ft | 526 kts | 211° |
| 2026-05-05 14:22 | 58.23641 | -115.55095 | 36247 ft | 526 kts | 211° |
| 2026-05-05 14:23 | 58.16949 | -115.60642 | 36278 ft | 524 kts | 211° |
| 2026-05-05 14:23 | 58.10270 | -115.66160 | 36271 ft | 524 kts | 211° |
| 2026-05-05 14:24 | 58.03587 | -115.71659 | 36278 ft | 523 kts | 211° |
| 2026-05-05 14:24 | 57.96947 | -115.77101 | 36277 ft | 524 kts | 210° |
| 2026-05-05 14:25 | 57.90257 | -115.82561 | 36277 ft | 524 kts | 210° |
| 2026-05-05 14:25 | 57.83573 | -115.87990 | 36273 ft | 522 kts | 211° |
| 2026-05-05 14:26 | 57.76907 | -115.93385 | 36275 ft | 521 kts | 211° |
| 2026-05-05 14:26 | 57.70243 | -115.98761 | 36275 ft | 521 kts | 211° |
| 2026-05-05 14:27 | 57.63577 | -116.04114 | 36275 ft | 522 kts | 210° |
| 2026-05-05 14:27 | 57.56897 | -116.09457 | 36276 ft | 522 kts | 210° |
| 2026-05-05 14:28 | 57.50211 | -116.14783 | 36254 ft | 522 kts | 210° |
| 2026-05-05 14:28 | 57.43542 | -116.20071 | 36273 ft | 521 kts | 210° |
| 2026-05-05 14:29 | 57.36912 | -116.25312 | 36276 ft | 521 kts | 210° |
| 2026-05-05 14:29 | 57.30227 | -116.30575 | 36285 ft | 522 kts | 210° |
| 2026-05-05 14:30 | 57.23539 | -116.35819 | 36280 ft | 523 kts | 210° |
| 2026-05-05 14:30 | 57.16837 | -116.41052 | 36232 ft | 522 kts | 210° |
| 2026-05-05 14:31 | 57.10138 | -116.46260 | 36272 ft | 521 kts | 210° |
| 2026-05-05 14:31 | 57.03449 | -116.51443 | 36289 ft | 521 kts | 210° |
| 2026-05-05 14:32 | 56.96748 | -116.56616 | 36278 ft | 522 kts | 210° |
| 2026-05-05 14:32 | 56.90051 | -116.61765 | 36279 ft | 522 kts | 210° |
| 2026-05-05 14:33 | 56.83385 | -116.66868 | 36280 ft | 523 kts | 210° |
| 2026-05-05 14:33 | 56.76668 | -116.71992 | 36282 ft | 522 kts | 210° |
| 2026-05-05 14:34 | 56.69962 | -116.77087 | 36288 ft | 522 kts | 210° |
| 2026-05-05 14:34 | 56.63250 | -116.82169 | 36280 ft | 524 kts | 210° |
| 2026-05-05 14:35 | 56.56508 | -116.87252 | 36280 ft | 524 kts | 209° |
| 2026-05-05 14:35 | 56.49772 | -116.92311 | 36275 ft | 525 kts | 209° |
| 2026-05-05 14:36 | 56.43057 | -116.97333 | 36275 ft | 524 kts | 209° |
| 2026-05-05 14:36 | 56.36294 | -117.02373 | 36276 ft | 524 kts | 209° |
| 2026-05-05 14:37 | 56.29541 | -117.07387 | 36282 ft | 525 kts | 209° |
| 2026-05-05 14:37 | 56.22778 | -117.12390 | 36275 ft | 525 kts | 209° |
| 2026-05-05 14:38 | 56.16050 | -117.17346 | 36276 ft | 526 kts | 209° |
| 2026-05-05 14:38 | 56.09275 | -117.22318 | 36232 ft | 525 kts | 209° |
| 2026-05-05 14:39 | 56.02512 | -117.27262 | 36244 ft | 525 kts | 209° |
| 2026-05-05 14:39 | 55.95745 | -117.32192 | 36269 ft | 525 kts | 209° |
| 2026-05-05 14:40 | 55.88963 | -117.37114 | 36260 ft | 526 kts | 208° |
| 2026-05-05 14:40 | 55.82188 | -117.42012 | 36262 ft | 526 kts | 208° |
| 2026-05-05 14:41 | 55.75405 | -117.46896 | 36241 ft | 525 kts | 208° |
| 2026-05-05 14:41 | 55.68676 | -117.51723 | 36252 ft | 525 kts | 208° |
| 2026-05-05 14:42 | 55.61867 | -117.56590 | 36252 ft | 525 kts | 208° |
| 2026-05-05 14:42 | 55.55129 | -117.61389 | 36255 ft | 525 kts | 208° |
| 2026-05-05 14:43 | 55.48351 | -117.66199 | 36243 ft | 525 kts | 208° |
| 2026-05-05 14:43 | 55.41579 | -117.70985 | 36224 ft | 524 kts | 208° |
| 2026-05-05 14:44 | 55.34814 | -117.75749 | 36240 ft | 523 kts | 208° |
| 2026-05-05 14:44 | 55.28062 | -117.80488 | 36237 ft | 522 kts | 208° |
| 2026-05-05 14:45 | 55.21306 | -117.85213 | 36232 ft | 522 kts | 208° |
| 2026-05-05 14:45 | 55.14548 | -117.89921 | 36231 ft | 523 kts | 208° |
| 2026-05-05 14:46 | 55.07822 | -117.94590 | 36234 ft | 523 kts | 208° |
| 2026-05-05 14:46 | 55.01049 | -117.99269 | 36230 ft | 524 kts | 207° |
| 2026-05-05 14:47 | 54.94016 | -118.03047 | 36233 ft | 530 kts | 201° |
| 2026-05-05 14:47 | 54.86873 | -118.06377 | 36225 ft | 531 kts | 200° |
| 2026-05-05 14:48 | 54.79725 | -118.09726 | 36229 ft | 532 kts | 201° |
| 2026-05-05 14:48 | 54.72572 | -118.13119 | 36168 ft | 532 kts | 201° |
| 2026-05-05 14:49 | 54.65439 | -118.16510 | 36207 ft | 531 kts | 201° |
| 2026-05-05 14:49 | 54.58361 | -118.19865 | 36228 ft | 531 kts | 201° |
| 2026-05-05 14:50 | 54.51226 | -118.23232 | 36214 ft | 531 kts | 200° |
| 2026-05-05 14:50 | 54.44095 | -118.26582 | 36206 ft | 531 kts | 200° |
| 2026-05-05 14:51 | 54.36957 | -118.29922 | 36204 ft | 531 kts | 200° |
| 2026-05-05 14:51 | 54.29828 | -118.33246 | 36210 ft | 530 kts | 200° |
| 2026-05-05 14:52 | 54.23901 | -118.36000 | 36211 ft | 530 kts | 200° |
| 2026-05-05 14:52 | 54.15632 | -118.39831 | 36212 ft | 530 kts | 200° |
| 2026-05-05 14:53 | 54.09659 | -118.42589 | 36209 ft | 530 kts | 200° |
| 2026-05-05 14:53 | 54.02576 | -118.45848 | 36212 ft | 531 kts | 200° |
| 2026-05-05 14:54 | 53.95433 | -118.49122 | 36178 ft | 530 kts | 200° |
| 2026-05-05 14:54 | 53.88313 | -118.52373 | 36209 ft | 530 kts | 200° |
| 2026-05-05 14:55 | 53.81188 | -118.55617 | 36208 ft | 531 kts | 200° |
| 2026-05-05 14:55 | 53.74043 | -118.58858 | 36201 ft | 531 kts | 200° |
| 2026-05-05 14:56 | 53.66900 | -118.62086 | 36194 ft | 531 kts | 200° |
| 2026-05-05 14:56 | 53.59783 | -118.65292 | 36158 ft | 531 kts | 200° |
| 2026-05-05 14:57 | 53.52658 | -118.68489 | 36210 ft | 530 kts | 200° |
| 2026-05-05 14:57 | 53.45533 | -118.71676 | 36200 ft | 529 kts | 200° |
| 2026-05-05 14:58 | 53.38414 | -118.74850 | 36210 ft | 529 kts | 200° |
| 2026-05-05 14:58 | 53.31295 | -118.78010 | 36183 ft | 529 kts | 200° |
| 2026-05-05 14:59 | 53.24188 | -118.81156 | 36231 ft | 529 kts | 199° |
| 2026-05-05 14:59 | 53.17061 | -118.84302 | 36195 ft | 530 kts | 199° |
| 2026-05-05 15:00 | 53.11121 | -118.86913 | 36189 ft | 530 kts | 199° |
| 2026-05-05 15:00 | 53.02837 | -118.90543 | 36198 ft | 530 kts | 199° |
| 2026-05-05 15:01 | 52.95699 | -118.93660 | 36201 ft | 530 kts | 199° |
| 2026-05-05 15:01 | 52.88558 | -118.96769 | 36192 ft | 531 kts | 199° |
| 2026-05-05 15:02 | 52.81410 | -118.99866 | 36188 ft | 529 kts | 199° |
| 2026-05-05 15:02 | 52.74279 | -119.02950 | 36189 ft | 530 kts | 199° |
| 2026-05-05 15:03 | 52.67135 | -119.06028 | 36184 ft | 530 kts | 199° |
| 2026-05-05 15:03 | 52.59994 | -119.09092 | 36172 ft | 530 kts | 199° |
| 2026-05-05 15:04 | 52.52851 | -119.12147 | 36182 ft | 530 kts | 199° |
| 2026-05-05 15:04 | 52.45769 | -119.15165 | 36180 ft | 528 kts | 199° |
| 2026-05-05 15:05 | 52.35064 | -119.19712 | 36164 ft | 528 kts | 199° |
| 2026-05-05 15:06 | 52.27954 | -119.22717 | 36134 ft | 528 kts | 199° |
| 2026-05-05 15:06 | 52.20843 | -119.25715 | 36148 ft | 528 kts | 199° |
| 2026-05-05 15:07 | 52.13730 | -119.28702 | 36124 ft | 527 kts | 199° |
| 2026-05-05 15:07 | 52.06631 | -119.31676 | 36114 ft | 527 kts | 199° |
| 2026-05-05 15:08 | 51.99520 | -119.34645 | 36122 ft | 528 kts | 199° |
| 2026-05-05 15:08 | 51.92399 | -119.37606 | 36094 ft | 528 kts | 199° |
| 2026-05-05 15:09 | 51.85268 | -119.40562 | 36115 ft | 529 kts | 199° |
| 2026-05-05 15:09 | 51.78137 | -119.43509 | 36072 ft | 529 kts | 198° |
| 2026-05-05 15:10 | 51.71055 | -119.46426 | 36087 ft | 529 kts | 198° |
| 2026-05-05 15:10 | 51.63930 | -119.49349 | 36098 ft | 527 kts | 198° |
| 2026-05-05 15:11 | 51.56814 | -119.52261 | 36086 ft | 528 kts | 198° |
| 2026-05-05 15:11 | 51.49701 | -119.55163 | 36083 ft | 527 kts | 198° |
| 2026-05-05 15:12 | 51.42581 | -119.58057 | 36084 ft | 527 kts | 198° |
| 2026-05-05 15:12 | 51.35469 | -119.60940 | 36081 ft | 527 kts | 198° |
| 2026-05-05 15:13 | 51.28341 | -119.63821 | 36070 ft | 527 kts | 198° |
| 2026-05-05 15:13 | 51.21260 | -119.66673 | 36056 ft | 529 kts | 198° |
| 2026-05-05 15:14 | 51.14123 | -119.69537 | 36055 ft | 529 kts | 198° |
| 2026-05-05 15:14 | 51.06962 | -119.72401 | 36036 ft | 529 kts | 198° |
| 2026-05-05 15:15 | 50.99820 | -119.75250 | 36045 ft | 529 kts | 198° |
| 2026-05-05 15:15 | 50.92685 | -119.78087 | 36037 ft | 529 kts | 198° |
| 2026-05-05 15:16 | 50.85535 | -119.80920 | 36045 ft | 529 kts | 198° |
| 2026-05-05 15:16 | 50.78390 | -119.83744 | 36053 ft | 531 kts | 198° |
| 2026-05-05 15:16 | 50.74789 | -119.85166 | 36157 ft | 536 kts | 198° |
| 2026-05-05 15:17 | 50.71189 | -119.86582 | 36697 ft | 530 kts | 197° |
| 2026-05-05 15:17 | 50.67624 | -119.87979 | 37124 ft | 528 kts | 198° |
| 2026-05-05 15:17 | 50.64053 | -119.89379 | 37395 ft | 529 kts | 198° |
| 2026-05-05 15:17 | 50.60475 | -119.90781 | 37669 ft | 530 kts | 198° |
| 2026-05-05 15:18 | 50.56887 | -119.92185 | 37931 ft | 531 kts | 198° |
| 2026-05-05 15:18 | 50.49678 | -119.95002 | 38033 ft | 536 kts | 198° |
| 2026-05-05 15:19 | 50.42461 | -119.97806 | 38016 ft | 532 kts | 198° |
| 2026-05-05 15:19 | 50.35294 | -120.00581 | 38030 ft | 528 kts | 198° |
| 2026-05-05 15:20 | 50.28177 | -120.03331 | 38033 ft | 526 kts | 198° |
| 2026-05-05 15:20 | 50.21075 | -120.06069 | 38023 ft | 525 kts | 197° |
| 2026-05-05 15:21 | 50.13977 | -120.08798 | 38022 ft | 526 kts | 197° |
| 2026-05-05 15:21 | 50.06898 | -120.11510 | 38022 ft | 528 kts | 197° |
| 2026-05-05 15:22 | 49.99760 | -120.14235 | 38018 ft | 529 kts | 197° |
| 2026-05-05 15:22 | 49.92609 | -120.16956 | 38028 ft | 530 kts | 197° |
| 2026-05-05 15:23 | 49.85438 | -120.19678 | 38026 ft | 531 kts | 197° |
| 2026-05-05 15:23 | 49.78263 | -120.22391 | 38027 ft | 531 kts | 197° |
| 2026-05-05 15:24 | 49.71094 | -120.25095 | 38006 ft | 530 kts | 197° |
| 2026-05-05 15:24 | 49.63934 | -120.27787 | 38059 ft | 528 kts | 197° |
| 2026-05-05 15:25 | 49.56789 | -120.30466 | 38060 ft | 528 kts | 197° |
| 2026-05-05 15:25 | 49.49654 | -120.33133 | 38065 ft | 527 kts | 197° |
| 2026-05-05 15:26 | 49.42573 | -120.35773 | 38080 ft | 526 kts | 197° |
| 2026-05-05 15:26 | 49.35397 | -120.38127 | 38060 ft | 528 kts | 191° |
| 2026-05-05 15:27 | 49.28124 | -120.39638 | 38052 ft | 527 kts | 189° |
| 2026-05-05 15:27 | 49.20848 | -120.41100 | 38031 ft | 526 kts | 190° |
| 2026-05-05 15:28 | 49.13595 | -120.42599 | 38033 ft | 526 kts | 190° |
| 2026-05-05 15:28 | 49.06345 | -120.44124 | 38034 ft | 526 kts | 190° |
| 2026-05-05 15:29 | 48.99085 | -120.45652 | 38003 ft | 526 kts | 190° |
| 2026-05-05 15:29 | 48.91833 | -120.47172 | 38017 ft | 526 kts | 190° |
| 2026-05-05 15:30 | 48.84566 | -120.48689 | 38020 ft | 527 kts | 190° |
| 2026-05-05 15:30 | 48.77335 | -120.50193 | 38007 ft | 528 kts | 190° |
| 2026-05-05 15:31 | 48.70043 | -120.51705 | 37993 ft | 529 kts | 189° |
| 2026-05-05 15:31 | 48.62753 | -120.53210 | 37991 ft | 528 kts | 189° |
| 2026-05-05 15:32 | 48.55471 | -120.54708 | 38001 ft | 527 kts | 189° |
| 2026-05-05 15:32 | 48.48205 | -120.56205 | 38007 ft | 526 kts | 189° |
| 2026-05-05 15:33 | 48.40963 | -120.57692 | 37966 ft | 525 kts | 189° |
| 2026-05-05 15:33 | 48.33726 | -120.59169 | 37979 ft | 525 kts | 189° |
| 2026-05-05 15:34 | 48.26473 | -120.60647 | 37982 ft | 525 kts | 189° |
| 2026-05-05 15:34 | 48.19225 | -120.62119 | 37977 ft | 526 kts | 189° |
| 2026-05-05 15:35 | 48.11960 | -120.63592 | 37961 ft | 527 kts | 189° |
| 2026-05-05 15:35 | 48.04700 | -120.65060 | 37973 ft | 525 kts | 189° |
| 2026-05-05 15:36 | 47.97485 | -120.66514 | 37950 ft | 527 kts | 189° |
| 2026-05-05 15:36 | 47.90221 | -120.67973 | 37963 ft | 526 kts | 189° |
| 2026-05-05 15:37 | 47.82961 | -120.69427 | 37968 ft | 527 kts | 189° |
| 2026-05-05 15:37 | 47.76865 | -120.70645 | 37974 ft | 527 kts | 189° |
| 2026-05-05 15:38 | 47.69630 | -120.72086 | 37959 ft | 527 kts | 189° |
| 2026-05-05 15:38 | 47.62353 | -120.73533 | 37950 ft | 528 kts | 188° |
| 2026-05-05 15:39 | 47.55067 | -120.74979 | 37914 ft | 527 kts | 189° |
| 2026-05-05 15:39 | 47.47809 | -120.76413 | 37937 ft | 527 kts | 188° |
| 2026-05-05 15:40 | 47.40528 | -120.77847 | 37948 ft | 529 kts | 188° |
| 2026-05-05 15:40 | 47.33222 | -120.79283 | 37945 ft | 530 kts | 188° |
| 2026-05-05 15:41 | 47.25915 | -120.80715 | 37946 ft | 530 kts | 188° |
| 2026-05-05 15:41 | 47.18605 | -120.82144 | 37939 ft | 529 kts | 188° |
| 2026-05-05 15:42 | 47.11302 | -120.83567 | 37939 ft | 529 kts | 188° |
| 2026-05-05 15:42 | 47.04008 | -120.84984 | 37965 ft | 528 kts | 188° |
| 2026-05-05 15:43 | 46.96726 | -120.86396 | 37956 ft | 528 kts | 188° |
| 2026-05-05 15:43 | 46.89447 | -120.87803 | 37929 ft | 527 kts | 188° |
| 2026-05-05 15:44 | 46.82226 | -120.89195 | 37952 ft | 527 kts | 188° |
| 2026-05-05 15:44 | 46.74950 | -120.90594 | 37949 ft | 527 kts | 188° |
| 2026-05-05 15:45 | 46.67663 | -120.91990 | 37951 ft | 527 kts | 188° |
| 2026-05-05 15:45 | 46.60379 | -120.93383 | 37940 ft | 528 kts | 188° |
| 2026-05-05 15:46 | 46.53094 | -120.94772 | 37936 ft | 528 kts | 188° |
| 2026-05-05 15:46 | 46.45813 | -120.96157 | 37935 ft | 527 kts | 187° |
| 2026-05-05 15:47 | 46.38545 | -120.97535 | 37937 ft | 526 kts | 187° |
| 2026-05-05 15:47 | 46.31281 | -120.98909 | 37926 ft | 526 kts | 187° |
| 2026-05-05 15:48 | 46.24076 | -121.00269 | 37936 ft | 525 kts | 187° |
| 2026-05-05 15:48 | 46.16832 | -121.01632 | 37918 ft | 525 kts | 187° |
| 2026-05-05 15:49 | 46.09585 | -121.02992 | 37933 ft | 524 kts | 187° |
| 2026-05-05 15:49 | 46.02340 | -121.04348 | 37945 ft | 524 kts | 187° |
| 2026-05-05 15:50 | 45.95104 | -121.05699 | 37934 ft | 525 kts | 187° |
| 2026-05-05 15:50 | 45.87857 | -121.07048 | 37921 ft | 525 kts | 187° |
| 2026-05-05 15:51 | 45.80614 | -121.08393 | 37943 ft | 524 kts | 187° |
| 2026-05-05 15:51 | 45.73371 | -121.09735 | 37939 ft | 525 kts | 187° |
| 2026-05-05 15:52 | 45.66109 | -121.10959 | 37948 ft | 525 kts | 185° |
| 2026-05-05 15:52 | 45.58881 | -121.11946 | 37960 ft | 525 kts | 184° |
| 2026-05-05 15:53 | 45.51602 | -121.12922 | 37964 ft | 524 kts | 184° |
| 2026-05-05 15:53 | 45.44333 | -121.13931 | 37948 ft | 525 kts | 184° |
| 2026-05-05 15:54 | 45.37072 | -121.14957 | 37948 ft | 524 kts | 184° |
| 2026-05-05 15:54 | 45.29813 | -121.15982 | 37954 ft | 524 kts | 184° |
| 2026-05-05 15:55 | 45.22547 | -121.17003 | 37919 ft | 524 kts | 184° |
| 2026-05-05 15:55 | 45.15295 | -121.18018 | 37942 ft | 523 kts | 184° |
| 2026-05-05 15:56 | 45.08057 | -121.19028 | 37945 ft | 522 kts | 184° |
| 2026-05-05 15:56 | 45.00862 | -121.20029 | 37948 ft | 523 kts | 184° |
| 2026-05-05 15:57 | 44.93624 | -121.21034 | 37947 ft | 523 kts | 184° |
| 2026-05-05 15:57 | 44.86385 | -121.22036 | 37941 ft | 521 kts | 184° |
| 2026-05-05 15:58 | 44.79172 | -121.23034 | 37946 ft | 521 kts | 184° |
| 2026-05-05 15:58 | 44.71945 | -121.24030 | 37942 ft | 522 kts | 184° |
| 2026-05-05 15:59 | 44.64715 | -121.25024 | 37948 ft | 522 kts | 184° |
| 2026-05-05 15:59 | 44.57477 | -121.26016 | 37958 ft | 523 kts | 183° |
| 2026-05-05 16:00 | 44.50225 | -121.27007 | 37958 ft | 524 kts | 183° |
| 2026-05-05 16:00 | 44.42967 | -121.27998 | 37963 ft | 525 kts | 183° |
| 2026-05-05 16:01 | 44.35693 | -121.28988 | 37955 ft | 525 kts | 183° |
| 2026-05-05 16:01 | 44.28411 | -121.29978 | 38014 ft | 526 kts | 183° |
| 2026-05-05 16:02 | 44.21212 | -121.31347 | 38012 ft | 526 kts | 189° |
| 2026-05-05 16:02 | 44.14023 | -121.33245 | 38033 ft | 525 kts | 189° |
| 2026-05-05 16:03 | 44.06836 | -121.35155 | 38021 ft | 525 kts | 189° |
| 2026-05-05 16:03 | 43.99653 | -121.37023 | 38008 ft | 525 kts | 188° |
| 2026-05-05 16:04 | 43.92476 | -121.38864 | 37987 ft | 524 kts | 188° |
| 2026-05-05 16:04 | 43.85349 | -121.40685 | 37972 ft | 524 kts | 188° |
| 2026-05-05 16:05 | 43.78175 | -121.42515 | 37952 ft | 523 kts | 188° |
| 2026-05-05 16:05 | 43.71014 | -121.44339 | 37952 ft | 523 kts | 188° |
| 2026-05-05 16:06 | 43.63855 | -121.46159 | 37948 ft | 522 kts | 188° |
| 2026-05-05 16:06 | 43.56714 | -121.47970 | 37946 ft | 522 kts | 188° |
| 2026-05-05 16:07 | 43.49584 | -121.49773 | 37954 ft | 521 kts | 188° |
| 2026-05-05 16:07 | 43.42455 | -121.51572 | 37956 ft | 520 kts | 188° |
| 2026-05-05 16:08 | 43.35335 | -121.53364 | 37935 ft | 520 kts | 187° |
| 2026-05-05 16:08 | 43.28272 | -121.55137 | 37939 ft | 518 kts | 187° |
| 2026-05-05 16:09 | 43.21181 | -121.56914 | 37951 ft | 517 kts | 187° |
| 2026-05-05 16:09 | 43.14094 | -121.58685 | 37935 ft | 517 kts | 187° |
| 2026-05-05 16:10 | 43.07010 | -121.60451 | 37925 ft | 517 kts | 187° |
| 2026-05-05 16:10 | 42.99931 | -121.62212 | 37927 ft | 517 kts | 187° |
| 2026-05-05 16:11 | 42.92845 | -121.63970 | 37929 ft | 518 kts | 187° |
| 2026-05-05 16:12 | 42.78628 | -121.67485 | 37926 ft | 520 kts | 187° |
| 2026-05-05 16:13 | 42.60774 | -121.71878 | 37932 ft | 522 kts | 187° |
| 2026-05-05 16:13 | 42.53661 | -121.73621 | 37950 ft | 523 kts | 187° |
| 2026-05-05 16:14 | 42.39389 | -121.77106 | 37934 ft | 523 kts | 187° |
| 2026-05-05 16:15 | 42.25231 | -121.80546 | 37926 ft | 522 kts | 186° |
| 2026-05-05 16:16 | 42.18094 | -121.82276 | 38027 ft | 520 kts | 186° |
| 2026-05-05 16:16 | 42.11026 | -121.83985 | 38027 ft | 519 kts | 186° |
| 2026-05-05 16:17 | 42.00378 | -121.86550 | 38002 ft | 517 kts | 186° |
| 2026-05-05 16:18 | 41.89760 | -121.89099 | 37974 ft | 516 kts | 186° |
| 2026-05-05 16:19 | 41.79151 | -121.91638 | 37983 ft | 516 kts | 186° |
| 2026-05-05 16:19 | 41.68537 | -121.94169 | 37987 ft | 517 kts | 186° |
| 2026-05-05 16:20 | 41.54330 | -121.97544 | 38001 ft | 520 kts | 185° |
| 2026-05-05 16:22 | 41.36463 | -122.01768 | 38004 ft | 524 kts | 185° |
| 2026-05-05 16:23 | 41.22065 | -122.05155 | 38033 ft | 525 kts | 185° |
| 2026-05-05 16:23 | 41.11269 | -122.07684 | 38029 ft | 525 kts | 185° |
| 2026-05-05 16:24 | 41.05284 | -122.09085 | 38032 ft | 525 kts | 185° |
| 2026-05-05 16:25 | 40.93322 | -122.11873 | 38050 ft | 525 kts | 185° |
| 2026-05-05 16:25 | 40.83748 | -122.14095 | 38037 ft | 524 kts | 184° |
| 2026-05-05 16:26 | 40.69381 | -122.17420 | 38039 ft | 524 kts | 184° |
| 2026-05-05 16:27 | 40.62194 | -122.19078 | 38049 ft | 524 kts | 184° |
| 2026-05-05 16:27 | 40.55003 | -122.20733 | 38041 ft | 524 kts | 184° |
| 2026-05-05 16:28 | 40.47801 | -122.22387 | 38038 ft | 525 kts | 184° |
| 2026-05-05 16:28 | 40.40650 | -122.24026 | 38057 ft | 525 kts | 184° |
| 2026-05-05 16:29 | 40.33460 | -122.25671 | 38046 ft | 525 kts | 184° |
| 2026-05-05 16:29 | 40.26273 | -122.27310 | 38059 ft | 524 kts | 184° |
| 2026-05-05 16:30 | 40.19076 | -122.28949 | 38047 ft | 524 kts | 184° |
| 2026-05-05 16:30 | 40.11904 | -122.30579 | 38063 ft | 523 kts | 184° |
| 2026-05-05 16:31 | 40.04723 | -122.32207 | 38052 ft | 523 kts | 184° |
| 2026-05-05 16:31 | 39.97544 | -122.33830 | 38051 ft | 523 kts | 184° |
| 2026-05-05 16:32 | 39.90372 | -122.35449 | 38039 ft | 523 kts | 184° |
| 2026-05-05 16:32 | 39.83203 | -122.37064 | 38048 ft | 522 kts | 184° |
| 2026-05-05 16:33 | 39.76041 | -122.38674 | 38052 ft | 523 kts | 184° |
| 2026-05-05 16:33 | 39.68922 | -122.40271 | 38037 ft | 523 kts | 184° |
| 2026-05-05 16:34 | 39.61755 | -122.41876 | 38033 ft | 522 kts | 184° |
| 2026-05-05 16:34 | 39.58167 | -122.42677 | 37711 ft | 523 kts | 184° |
| 2026-05-05 16:34 | 39.54595 | -122.43475 | 37254 ft | 519 kts | 184° |
| 2026-05-05 16:35 | 39.51056 | -122.44268 | 36842 ft | 513 kts | 184° |
| 2026-05-05 16:35 | 39.47548 | -122.45054 | 36429 ft | 508 kts | 183° |
| 2026-05-05 16:35 | 39.44088 | -122.45826 | 36022 ft | 502 kts | 183° |
| 2026-05-05 16:35 | 39.40658 | -122.46590 | 35605 ft | 498 kts | 183° |
| 2026-05-05 16:36 | 39.37258 | -122.47344 | 35189 ft | 494 kts | 183° |
| 2026-05-05 16:36 | 39.33879 | -122.48093 | 34760 ft | 490 kts | 182° |
| 2026-05-05 16:36 | 39.30533 | -122.48833 | 34341 ft | 487 kts | 182° |
| 2026-05-05 16:36 | 39.27244 | -122.49561 | 33916 ft | 483 kts | 182° |
| 2026-05-05 16:37 | 39.23942 | -122.50291 | 33443 ft | 480 kts | 182° |
| 2026-05-05 16:37 | 39.20655 | -122.51017 | 33002 ft | 477 kts | 183° |
| 2026-05-05 16:37 | 39.17398 | -122.51737 | 32597 ft | 473 kts | 183° |
| 2026-05-05 16:37 | 39.14171 | -122.52448 | 32161 ft | 469 kts | 183° |
| 2026-05-05 16:38 | 39.10967 | -122.53152 | 31751 ft | 464 kts | 183° |
| 2026-05-05 16:38 | 39.07796 | -122.53851 | 31357 ft | 461 kts | 183° |
| 2026-05-05 16:38 | 39.04648 | -122.54545 | 30960 ft | 457 kts | 184° |
| 2026-05-05 16:38 | 39.01522 | -122.55232 | 30563 ft | 454 kts | 184° |
| 2026-05-05 16:39 | 38.98427 | -122.55910 | 30170 ft | 451 kts | 184° |
| 2026-05-05 16:39 | 38.95335 | -122.56588 | 29730 ft | 448 kts | 184° |
| 2026-05-05 16:39 | 38.92278 | -122.57258 | 29281 ft | 444 kts | 184° |
| 2026-05-05 16:39 | 38.89249 | -122.57924 | 28863 ft | 440 kts | 185° |
| 2026-05-05 16:40 | 38.86249 | -122.58692 | 28416 ft | 439 kts | 188° |
| 2026-05-05 16:40 | 38.83275 | -122.59553 | 27996 ft | 437 kts | 189° |
| 2026-05-05 16:40 | 38.80314 | -122.60436 | 27553 ft | 436 kts | 189° |
| 2026-05-05 16:40 | 38.77409 | -122.61293 | 27125 ft | 433 kts | 189° |
| 2026-05-05 16:41 | 38.74481 | -122.62140 | 26685 ft | 430 kts | 189° |
| 2026-05-05 16:41 | 38.71564 | -122.62970 | 26271 ft | 428 kts | 189° |
| 2026-05-05 16:41 | 38.68666 | -122.63789 | 25856 ft | 426 kts | 189° |
| 2026-05-05 16:41 | 38.65780 | -122.64602 | 25431 ft | 423 kts | 189° |
| 2026-05-05 16:42 | 38.62910 | -122.65410 | 25022 ft | 421 kts | 190° |
| 2026-05-05 16:42 | 38.60057 | -122.66213 | 24609 ft | 419 kts | 190° |
| 2026-05-05 16:42 | 38.57216 | -122.67013 | 24203 ft | 417 kts | 190° |
| 2026-05-05 16:42 | 38.54389 | -122.67808 | 23789 ft | 416 kts | 191° |
| 2026-05-05 16:43 | 38.51565 | -122.68602 | 23325 ft | 414 kts | 191° |
| 2026-05-05 16:43 | 38.48754 | -122.69392 | 22869 ft | 412 kts | 191° |
| 2026-05-05 16:43 | 38.45964 | -122.70175 | 22443 ft | 409 kts | 191° |
| 2026-05-05 16:43 | 38.43191 | -122.70953 | 22040 ft | 406 kts | 191° |
| 2026-05-05 16:44 | 38.40443 | -122.71724 | 21637 ft | 403 kts | 191° |
| 2026-05-05 16:44 | 38.37716 | -122.72487 | 21246 ft | 400 kts | 191° |
| 2026-05-05 16:44 | 38.35006 | -122.73246 | 20858 ft | 397 kts | 191° |
| 2026-05-05 16:44 | 38.32319 | -122.73997 | 20476 ft | 395 kts | 191° |
| 2026-05-05 16:45 | 38.29641 | -122.74746 | 20073 ft | 392 kts | 191° |
| 2026-05-05 16:45 | 38.26986 | -122.75487 | 19701 ft | 390 kts | 191° |
| 2026-05-05 16:45 | 38.24342 | -122.76224 | 19312 ft | 387 kts | 191° |
| 2026-05-05 16:45 | 38.21701 | -122.76588 | 18924 ft | 379 kts | 173° |
| 2026-05-05 16:46 | 38.19194 | -122.75950 | 18578 ft | 368 kts | 162° |
| 2026-05-05 16:46 | 38.16716 | -122.75154 | 18208 ft | 367 kts | 163° |
| 2026-05-05 16:46 | 38.14241 | -122.74395 | 17801 ft | 365 kts | 164° |
| 2026-05-05 16:46 | 38.11774 | -122.73658 | 17389 ft | 364 kts | 165° |
| 2026-05-05 16:47 | 38.09311 | -122.72935 | 16982 ft | 362 kts | 165° |
| 2026-05-05 16:47 | 38.06865 | -122.72222 | 16614 ft | 359 kts | 165° |
| 2026-05-05 16:47 | 38.04436 | -122.71517 | 16262 ft | 357 kts | 165° |
| 2026-05-05 16:47 | 38.02018 | -122.70816 | 15906 ft | 355 kts | 165° |
| 2026-05-05 16:48 | 37.99609 | -122.70119 | 15539 ft | 354 kts | 165° |
| 2026-05-05 16:48 | 37.97216 | -122.69425 | 15194 ft | 352 kts | 165° |
| 2026-05-05 16:48 | 37.94825 | -122.68734 | 14830 ft | 351 kts | 165° |
| 2026-05-05 16:48 | 37.92446 | -122.68047 | 14479 ft | 350 kts | 165° |
| 2026-05-05 16:49 | 37.90129 | -122.67246 | 14117 ft | 341 kts | 153° |
| 2026-05-05 16:49 | 37.88197 | -122.65633 | 13783 ft | 328 kts | 134° |
| 2026-05-05 16:49 | 37.86487 | -122.63703 | 13461 ft | 331 kts | 134° |
| 2026-05-05 16:49 | 37.84728 | -122.61796 | 13127 ft | 334 kts | 135° |
| 2026-05-05 16:50 | 37.82977 | -122.59935 | 12783 ft | 332 kts | 135° |
| 2026-05-05 16:50 | 37.81212 | -122.58067 | 12439 ft | 330 kts | 135° |
| 2026-05-05 16:50 | 37.79461 | -122.56214 | 12118 ft | 327 kts | 135° |
| 2026-05-05 16:50 | 37.77720 | -122.54371 | 11795 ft | 324 kts | 135° |
| 2026-05-05 16:51 | 37.75998 | -122.52550 | 11471 ft | 322 kts | 135° |
| 2026-05-05 16:51 | 37.74284 | -122.50738 | 11159 ft | 319 kts | 135° |
| 2026-05-05 16:51 | 37.72604 | -122.48962 | 11041 ft | 310 kts | 135° |
| 2026-05-05 16:51 | 37.70981 | -122.47239 | 10989 ft | 300 kts | 135° |
| 2026-05-05 16:52 | 37.69382 | -122.45535 | 10998 ft | 303 kts | 135° |
| 2026-05-05 16:52 | 37.67754 | -122.43795 | 11007 ft | 310 kts | 135° |
| 2026-05-05 16:52 | 37.66093 | -122.42026 | 11029 ft | 313 kts | 135° |
| 2026-05-05 16:52 | 37.64423 | -122.40254 | 11003 ft | 313 kts | 135° |
| 2026-05-05 16:53 | 37.62757 | -122.38488 | 11012 ft | 313 kts | 135° |
| 2026-05-05 16:53 | 37.61083 | -122.36733 | 10760 ft | 313 kts | 137° |
| 2026-05-05 16:53 | 37.59296 | -122.35193 | 10266 ft | 304 kts | 143° |
| 2026-05-05 16:53 | 37.57491 | -122.33824 | 9614 ft | 304 kts | 145° |
| 2026-05-05 16:54 | 37.55648 | -122.32509 | 8801 ft | 306 kts | 148° |
| 2026-05-05 16:54 | 37.53760 | -122.31242 | 8453 ft | 306 kts | 149° |
| 2026-05-05 16:54 | 37.51906 | -122.30026 | 8088 ft | 297 kts | 149° |
| 2026-05-05 16:54 | 37.50089 | -122.28830 | 7590 ft | 292 kts | 149° |
| 2026-05-05 16:55 | 37.48298 | -122.27664 | 7049 ft | 289 kts | 152° |
| 2026-05-05 16:55 | 37.46497 | -122.26567 | 6428 ft | 286 kts | 153° |
| 2026-05-05 16:55 | 37.44717 | -122.25493 | 5890 ft | 286 kts | 150° |
| 2026-05-05 16:55 | 37.43264 | -122.23848 | 5409 ft | 282 kts | 118° |
| 2026-05-05 16:56 | 37.42807 | -122.21529 | 5199 ft | 270 kts | 83° |
| 2026-05-05 16:56 | 37.43297 | -122.19352 | 5103 ft | 253 kts | 60° |
| 2026-05-05 16:56 | 37.44241 | -122.17581 | 4794 ft | 238 kts | 43° |
| 2026-05-05 16:56 | 37.45529 | -122.16330 | 4309 ft | 231 kts | 22° |
| 2026-05-05 16:57 | 37.47029 | -122.15638 | 3907 ft | 229 kts | 9° |
| 2026-05-05 16:57 | 37.48573 | -122.15573 | 3609 ft | 220 kts | 345° |
| 2026-05-05 16:57 | 37.50040 | -122.16080 | 3198 ft | 220 kts | 342° |
| 2026-05-05 16:57 | 37.51501 | -122.16573 | 3026 ft | 213 kts | 343° |
| 2026-05-05 16:58 | 37.52857 | -122.17125 | 2988 ft | 198 kts | 326° |
| 2026-05-05 16:58 | 37.53798 | -122.18379 | 3022 ft | 199 kts | 303° |
| 2026-05-05 16:58 | 37.54581 | -122.19839 | 2906 ft | 204 kts | 303° |
| 2026-05-05 16:58 | 37.55330 | -122.21374 | 2610 ft | 204 kts | 300° |
| 2026-05-05 16:59 | 37.55984 | -122.22900 | 2393 ft | 191 kts | 298° |
| 2026-05-05 16:59 | 37.56586 | -122.24340 | 2089 ft | 180 kts | 298° |
| 2026-05-05 16:59 | 37.57164 | -122.25722 | 1859 ft | 176 kts | 298° |
| 2026-05-05 16:59 | 37.57708 | -122.27018 | 1663 ft | 162 kts | 298° |
| 2026-05-05 17:00 | 37.58213 | -122.28225 | 1406 ft | 147 kts | 297° |
| 2026-05-05 17:00 | 37.58671 | -122.29316 | 1210 ft | 140 kts | 297° |
| 2026-05-05 17:00 | 37.59132 | -122.30419 | 1033 ft | 144 kts | 297° |
| 2026-05-05 17:00 | 37.59600 | -122.31534 | 814 ft | 143 kts | 297° |
| 2026-05-05 17:01 | 37.60060 | -122.32623 | 634 ft | 138 kts | 297° |
| 2026-05-05 17:01 | 37.60508 | -122.33704 | 434 ft | 140 kts | 297° |
| 2026-05-05 17:01 | 37.60956 | -122.34771 | 251 ft | 134 kts | 297° |
| 2026-05-05 17:01 | 37.61383 | -122.35795 | 61 ft | 133 kts | 297° |
| 2026-05-05 17:02 | 37.61799 | -122.36778 | 26 ft | 112 kts | 298° |
| 2026-05-05 17:02 | 37.62094 | -122.37477 | 22 ft | 68 kts | 298° |
| 2026-05-05 17:02 | 37.62260 | -122.37873 | 26 ft | 44 kts | 298° |
| 2026-05-05 17:02 | 37.62387 | -122.38176 | 31 ft | 33 kts | 298° |
| 2026-05-05 17:03 | 37.62476 | -122.38390 | 28 ft | 22 kts | 292° |
| 2026-05-05 17:03 | 37.62502 | -122.38528 | 27 ft | 13 kts | 275° |
| 2026-05-05 17:03 | 37.62503 | -122.38643 | 24 ft | 12 kts | 268° |
| 2026-05-05 17:03 | 37.62499 | -122.38747 | 28 ft | 11 kts | 268° |
| 2026-05-05 17:04 | 37.62486 | -122.38833 | 29 ft | 10 kts | 243° |
| 2026-05-05 17:04 | 37.62433 | -122.38889 | 26 ft | 11 kts | 210° |
| 2026-05-05 17:04 | 37.62364 | -122.38934 | 24 ft | 12 kts | 207° |
| 2026-05-05 17:04 | 37.62315 | -122.38968 | 20 ft | 6 kts | 210° |
| 2026-05-05 17:05 | 37.62275 | -122.38995 | 20 ft | 7 kts | 208° |
| 2026-05-05 17:05 | 37.62245 | -122.39038 | 21 ft | 7 kts | 245° |
| 2026-05-05 17:05 | 37.62226 | -122.39092 | 23 ft | 7 kts | 240° |
| 2026-05-05 17:05 | 37.62189 | -122.39130 | 21 ft | 7 kts | 207° |
| 2026-05-05 17:06 | 37.62141 | -122.39161 | 21 ft | 8 kts | 207° |
| 2026-05-05 17:06 | 37.62089 | -122.39197 | 22 ft | 9 kts | 208° |
| 2026-05-05 17:06 | 37.62038 | -122.39238 | 22 ft | 9 kts | 225° |
| 2026-05-05 17:06 | 37.62013 | -122.39306 | 26 ft | 9 kts | 252° |
| 2026-05-05 17:07 | 37.61997 | -122.39374 | 26 ft | 6 kts | 253° |
| 2026-05-05 17:07 | 37.61983 | -122.39422 | 25 ft | 6 kts | 239° |
| 2026-05-05 17:07 | 37.61948 | -122.39426 | 26 ft | 6 kts | 162° |
| 2026-05-05 17:07 | 37.61915 | -122.39407 | 26 ft | 4 kts | 156° |
| 2026-05-05 17:08 | 37.61900 | -122.39399 | 25 ft | 0 kts | 156° |